M I D A S
Marine Information and Data Acquisition System
Tripno 1155 of the Zeeleeuw from 2006-08-29 06:31:26 to 2006-08-29 13:58:49
Back to CruiseResearch ActivitiesStationsMapUnderway DataData graphs

EquipmentUnitsComment
TimeDGPSUTC
LatitudeDGPSDM.mWGS84
LongitudeDGPSDM.mWGS84
TemperatureSBE03/SBE38deg celciusITS90
ConductivitySBE21S/mITS90
SalinitySBE21 Practical Salinity Units
ChlorophylAChelsea fluorimeterg/lCalibrated in Aceton
Missing or incorrect values are displayed as -999
Sea surface data collected by the RV Zeeleeuw from 2006-08-29 06:30:03 to 2006-08-29 14:10:36
                                                                                    Next 1000 lines
Time Latitude Longitude Temperature Conductivity Salinity ChlorophylA
2006-08-29 06:30:12 51°13.599 2°56.086 20.951 4.722441 32.281292 -0.410446
2006-08-29 06:30:18 51°13.6 2°56.082 20.9958 4.722441 32.281292 -0.376736
2006-08-29 06:30:23 51°13.601 2°56.078 20.9774 4.72223 32.280178 -0.376736
2006-08-29 06:30:28 51°13.602 2°56.074 20.9853 4.722336 32.280485 -0.410446
2006-08-29 06:30:33 51°13.603 2°56.07 20.9906 4.72223 32.280678 -0.410446
2006-08-29 06:30:38 51°13.604 2°56.065 20.9942 4.72223 32.280678 -0.376736
2006-08-29 06:30:43 51°13.605 2°56.06 20.9943 4.72223 32.280678 -0.376736
2006-08-29 06:30:48 51°13.607 2°56.054 21.0005 4.72223 32.280678 -0.410446
2006-08-29 06:30:53 51°13.608 2°56.049 20.994 4.722125 32.279871 -0.376736
2006-08-29 06:30:58 51°13.61 2°56.043 20.9954 4.722231 32.281178 -0.410446
2006-08-29 06:31:04 51°13.612 2°56.037 20.9985 4.722231 32.281178 -0.410446
2006-08-29 06:31:08 51°13.613 2°56.032 21.0061 4.722125 32.280371 -0.410446
2006-08-29 06:31:13 51°13.614 2°56.027 21.0057 4.722125 32.280371 -0.410446
2006-08-29 06:31:18 51°13.616 2°56.021 21.0083 4.722125 32.281372 -0.410446
2006-08-29 06:31:23 51°13.618 2°56.015 20.9937 4.722125 32.281372 -0.410446
2006-08-29 06:31:29 51°13.62 2°56.007 21.0018 4.722125 32.281872 -0.410446
2006-08-29 06:31:33 51°13.622 2°56.003 20.9996 4.721914 32.279758 -0.410446
2006-08-29 06:31:38 51°13.624 2°55.997 21.004 4.72202 32.281566 -0.410446
2006-08-29 06:31:43 51°13.626 2°55.99 21.0034 4.72202 32.281566 -0.410446
2006-08-29 06:31:48 51°13.629 2°55.984 21.0031 4.72202 32.282066 -0.410446
2006-08-29 06:31:53 51°13.631 2°55.977 20.9995 4.72202 32.281566 -0.376736
2006-08-29 06:31:59 51°13.634 2°55.97 21.0021 4.721809 32.280452 -0.410446
2006-08-29 06:32:03 51°13.636 2°55.965 21.0005 4.721914 32.281259 -0.376736
2006-08-29 06:32:08 51°13.639 2°55.959 21.0052 4.721914 32.281259 -0.410446
2006-08-29 06:32:13 51°13.642 2°55.953 21.0055 4.721914 32.281259 -0.410446
2006-08-29 06:32:18 51°13.645 2°55.947 21.0052 4.721914 32.281759 -0.410446
2006-08-29 06:32:23 51°13.648 2°55.941 21.0074 4.721809 32.281453 -0.376736
2006-08-29 06:32:28 51°13.651 2°55.935 21.0068 4.721809 32.281453 -0.410446
2006-08-29 06:32:33 51°13.654 2°55.93 21.0071 4.721703 32.280145 -0.410446
2006-08-29 06:32:39 51°13.658 2°55.923 21.0063 4.721703 32.280645 -0.410446
2006-08-29 06:32:43 51°13.66 2°55.918 21.0045 4.721703 32.280645 -0.410446
2006-08-29 06:32:48 51°13.663 2°55.912 21.0018 4.721809 32.281953 -0.410446
2006-08-29 06:32:53 51°13.666 2°55.906 21.0033 4.721809 32.281953 -0.410446
2006-08-29 06:32:59 51°13.67 2°55.899 21.0059 4.721703 32.281646 -0.410446
2006-08-29 06:33:03 51°13.672 2°55.893 21.0075 4.721703 32.281646 -0.376736
2006-08-29 06:33:09 51°13.676 2°55.886 21.0086 4.721492 32.280532 -0.376736
2006-08-29 06:33:13 51°13.678 2°55.881 21.0088 4.721492 32.280532 -0.376736
2006-08-29 06:33:18 51°13.681 2°55.874 21.009 4.721598 32.28134 -0.410446
2006-08-29 06:33:23 51°13.684 2°55.868 21.0059 4.721492 32.280532 -0.410446
2006-08-29 06:33:28 51°13.687 2°55.861 21.0062 4.721598 32.28184 -0.376736
2006-08-29 06:33:33 51°13.69 2°55.854 21.0066 4.721492 32.280532 -0.376736
2006-08-29 06:33:38 51°13.692 2°55.847 21.0097 4.721492 32.281033 -0.410446
2006-08-29 06:33:43 51°13.695 2°55.841 21.0105 4.721598 32.28134 -0.376736
2006-08-29 06:33:48 51°13.698 2°55.833 20.6756 4.721598 32.28134 -0.376736
2006-08-29 06:33:53 51°13.7 2°55.827 20.2272 4.721492 32.281533 -0.410446
2006-08-29 06:33:58 51°13.703 2°55.819 19.93 4.710632 32.278994 -0.14077
2006-08-29 06:34:03 51°13.705 2°55.812 19.7872 4.623426 31.671074 -0.275608
2006-08-29 06:34:09 51°13.707 2°55.803 19.7254 4.680792 32.169269 0.331161
2006-08-29 06:34:13 51°13.709 2°55.797 19.6912 4.680792 32.169269 0.331161
2006-08-29 06:34:18 51°13.711 2°55.79 19.6775 4.358157 30.059971 0.331161
2006-08-29 06:34:23 51°13.712 2°55.783 19.6584 4.404447 30.79493 0.39858
2006-08-29 06:34:28 51°13.714 2°55.776 19.6513 4.141333 29.043489 0.196324
2006-08-29 06:34:33 51°13.715 2°55.769 19.6499 3.782403 26.528578 0.364871
2006-08-29 06:34:39 51°13.717 2°55.761 19.6408 3.448058 24.118921 0.39858
2006-08-29 06:34:43 51°13.718 2°55.756 19.6304 3.448058 24.118921 0.39858
2006-08-29 06:34:48 51°13.718 2°55.75 19.6259 3.310952 23.13851 0.331161
2006-08-29 06:34:54 51°13.719 2°55.742 19.6189 3.251465 22.751353 0.297452
2006-08-29 06:34:58 51°13.72 2°55.737 19.6257 3.202931 22.406724 0.297452
2006-08-29 06:35:03 51°13.721 2°55.731 19.6226 3.180719 22.261746 0.263742
2006-08-29 06:35:08 51°13.721 2°55.727 19.6213 3.161454 22.125645 0.263742
2006-08-29 06:35:13 51°13.721 2°55.722 19.6026 3.161454 22.125645 0.263742
2006-08-29 06:35:18 51°13.722 2°55.719 19.6002 3.150086 22.049348 0.263742
2006-08-29 06:35:23 51°13.722 2°55.717 19.6002 3.110401 21.751996 0.263742
2006-08-29 06:35:28 51°13.722 2°55.715 19.599 3.131559 21.919601 0.263742
2006-08-29 06:35:33 51°13.722 2°55.714 19.5928 3.119138 21.827781 0.230033
2006-08-29 06:35:37 51°13.722 2°55.714 19.6109 3.122822 21.859142 0.263742
2006-08-29 06:35:42 51°13.723 2°55.714 19.5941 3.122822 21.859142 0.263742
2006-08-29 06:35:48 51°13.724 2°55.716 19.5815 3.106507 21.734357 0.263742
2006-08-29 06:35:52 51°13.724 2°55.716 19.5843 3.114402 21.800376 0.263742
2006-08-29 06:35:58 51°13.725 2°55.719 19.5778 3.110296 21.773446 0.263742
2006-08-29 06:36:03 51°13.726 2°55.721 19.5621 3.107875 21.758049 0.263742
2006-08-29 06:36:08 51°13.728 2°55.723 19.5048 3.105665 21.743543 0.297452
2006-08-29 06:36:12 51°13.729 2°55.725 19.4969 3.105665 21.743543 0.297452
2006-08-29 06:36:18 51°13.731 2°55.727 19.4453 3.110612 21.781732 0.297452
2006-08-29 06:36:22 51°13.732 2°55.728 19.4316 3.10156 21.715142 0.297452
2006-08-29 06:36:28 51°13.733 2°55.728 19.3518 3.111139 21.792379 0.297452
2006-08-29 06:36:31 51°13.733 2°55.729 19.3297 3.123244 21.889929 0.297452
2006-08-29 06:36:38 51°13.733 2°55.729 19.2767 3.126297 21.91757 0.297452
2006-08-29 06:36:41 51°13.733 2°55.728 19.2405 3.126297 21.91757 0.297452
2006-08-29 06:36:47 51°13.732 2°55.728 19.2114 3.159561 22.190933 0.331161
2006-08-29 06:36:53 51°13.731 2°55.728 19.183 3.176299 22.336053 0.331161
2006-08-29 06:36:58 51°13.729 2°55.727 19.1591 3.230202 22.769653 0.331161
2006-08-29 06:37:02 51°13.728 2°55.726 19.1383 3.25547 22.995433 0.39858
2006-08-29 06:37:08 51°13.727 2°55.725 19.0778 3.311064 23.453279 0.39858
2006-08-29 06:37:13 51°13.726 2°55.725 19.0073 3.311064 23.453279 0.39858
2006-08-29 06:37:18 51°13.725 2°55.725 18.9963 3.333914 23.656565 0.432289
2006-08-29 06:37:23 51°13.726 2°55.725 18.9921 3.392463 24.146052 0.432289
2006-08-29 06:37:28 51°13.726 2°55.725 18.9778 3.431955 24.47786 0.432289
2006-08-29 06:37:33 51°13.728 2°55.725 18.9933 3.444803 24.600555 0.465999
2006-08-29 06:37:39 51°13.729 2°55.724 18.9962 3.483561 24.930741 0.465999
2006-08-29 06:37:43 51°13.731 2°55.724 18.9845 3.483561 24.930741 0.465999
2006-08-29 06:37:48 51°13.733 2°55.723 18.996 3.516317 25.216552 0.465999
2006-08-29 06:37:53 51°13.736 2°55.721 18.9807 3.550339 25.521229 0.499708
2006-08-29 06:37:58 51°13.739 2°55.719 18.9586 3.58194 25.797651 0.499708
2006-08-29 06:38:03 51°13.742 2°55.716 18.9373 3.592684 25.898015 0.499708
2006-08-29 06:38:08 51°13.746 2°55.713 18.9265 3.600163 25.963983 0.465999
2006-08-29 06:38:13 51°13.75 2°55.709 18.9206 3.600163 25.963983 0.465999
2006-08-29 06:38:18 51°13.755 2°55.704 18.9129 3.595107 25.927569 0.499708
2006-08-29 06:38:22 51°13.759 2°55.7 18.9041 3.604798 26.005924 0.499708
2006-08-29 06:38:28 51°13.766 2°55.693 18.8882 3.609855 26.048583 0.499708
2006-08-29 06:38:33 51°13.771 2°55.687 18.8963 3.622074 26.155288 0.499708
2006-08-29 06:38:37 51°13.776 2°55.682 18.9064 3.615965 26.116228 0.499708
2006-08-29 06:38:43 51°13.784 2°55.674 18.89 3.615965 26.116228 0.499708
2006-08-29 06:38:48 51°13.791 2°55.668 18.876 3.640299 26.320146 0.465999
2006-08-29 06:38:53 51°13.798 2°55.661 18.8669 3.643986 26.358288 0.465999
2006-08-29 06:38:58 51°13.805 2°55.655 18.8559 3.652414 26.433141 0.499708
2006-08-29 06:39:02 51°13.811 2°55.649 18.8709 3.663159 26.527125 0.499708
2006-08-29 06:39:08 51°13.821 2°55.641 18.8515 3.672851 26.610453 0.499708
2006-08-29 06:39:13 51°13.828 2°55.634 18.8513 3.672851 26.610453 0.499708
2006-08-29 06:39:18 51°13.836 2°55.627 18.8401 3.663476 26.537405 0.499708
2006-08-29 06:39:22 51°13.843 2°55.622 18.8333 3.679805 26.672284 0.533418
2006-08-29 06:39:28 51°13.853 2°55.614 18.8238 3.675064 26.641494 0.567127
2006-08-29 06:39:32 51°13.86 2°55.609 18.831 3.648833 26.4366 0.600836
2006-08-29 06:39:38 51°13.87 2°55.601 18.8213 3.673273 26.63533 0.600836
2006-08-29 06:39:42 51°13.877 2°55.596 18.8174 3.673273 26.63533 0.600836
2006-08-29 06:39:48 51°13.887 2°55.589 18.8146 3.670956 26.621265 0.600836
2006-08-29 06:39:52 51°13.895 2°55.584 18.8205 3.676539 26.669844 0.600836
2006-08-29 06:39:58 51°13.905 2°55.576 18.8113 3.685599 26.75057 0.634546
2006-08-29 06:40:02 51°13.913 2°55.571 18.7974 3.69624 26.839949 0.634546
2006-08-29 06:40:08 51°13.923 2°55.564 18.796 3.710357 26.959733 0.600836
2006-08-29 06:40:12 51°13.931 2°55.559 18.7968 3.710357 26.959733 0.600836
2006-08-29 06:40:17 51°13.94 2°55.552 18.7951 3.715836 27.006693 0.668255
2006-08-29 06:40:23 51°13.951 2°55.545 18.7953 3.724369 27.080653 0.634546
2006-08-29 06:40:28 51°13.96 2°55.539 18.7887 3.7289 27.116745 0.600836
2006-08-29 06:40:32 51°13.967 2°55.534 18.7772 3.729005 27.119462 0.600836
2006-08-29 06:40:37 51°13.977 2°55.528 18.7732 3.722473 27.071875 0.634546
2006-08-29 06:40:43 51°13.988 2°55.521 18.7696 3.725002 27.096015 0.634546
2006-08-29 06:40:48 51°13.997 2°55.515 18.7613 3.725002 27.096015 0.634546
2006-08-29 06:40:52 51°14.004 2°55.51 18.7628 3.726582 27.112974 0.600836
2006-08-29 06:40:58 51°14.016 2°55.503 18.7516 3.726372 27.112207 0.634546
2006-08-29 06:41:02 51°14.023 2°55.497 18.7397 3.72142 27.074561 0.600836
2006-08-29 06:41:08 51°14.034 2°55.49 18.7325 3.722474 27.088199 0.634546
2006-08-29 06:41:12 51°14.042 2°55.485 18.7235 3.722474 27.088199 0.634546
2006-08-29 06:41:18 51°14.053 2°55.477 18.7141 3.729006 27.144696 0.634546
2006-08-29 06:41:22 51°14.061 2°55.471 18.7086 3.730691 27.163464 0.634546
2006-08-29 06:41:28 51°14.073 2°55.463 18.7089 3.73754 27.222094 0.634546
2006-08-29 06:41:33 51°14.082 2°55.456 18.7 3.739647 27.242416 0.634546
2006-08-29 06:41:38 51°14.093 2°55.449 18.6932 3.739436 27.24823 0.600836
2006-08-29 06:41:42 51°14.1 2°55.443 18.6837 3.739436 27.24823 0.600836
2006-08-29 06:41:48 51°14.113 2°55.434 18.6739 3.738172 27.244584 0.634546
2006-08-29 06:41:52 51°14.121 2°55.428 18.6631 3.741965 27.2828 0.634546
2006-08-29 06:41:58 51°14.133 2°55.418 18.6484 3.744283 27.307686 0.600836
2006-08-29 06:42:02 51°14.141 2°55.411 18.639 3.74776 27.338666 0.634546
2006-08-29 06:42:08 51°14.154 2°55.4 18.6191 3.749551 27.358366 0.634546
2006-08-29 06:42:12 51°14.162 2°55.393 18.6102 3.749551 27.358366 0.634546
2006-08-29 06:42:18 51°14.174 2°55.381 18.5862 3.753133 27.391167 0.634546
2006-08-29 06:42:23 51°14.184 2°55.371 18.5777 3.75366 27.403482 0.600836
2006-08-29 06:42:28 51°14.194 2°55.36 18.5573 3.762616 27.481774 0.668255
2006-08-29 06:42:32 51°14.202 2°55.351 18.5369 3.764618 27.505139 0.634546
2006-08-29 06:42:38 51°14.213 2°55.337 18.5351 3.748709 27.385598 0.600836
2006-08-29 06:42:42 51°14.221 2°55.327 18.5038 3.748709 27.385598 0.600836
2006-08-29 06:42:48 51°14.232 2°55.312 18.5107 3.752713 27.428031 0.600836
2006-08-29 06:42:52 51°14.239 2°55.302 18.4855 3.746181 27.384989 0.668255
2006-08-29 06:42:57 51°14.247 2°55.288 18.4728 3.738701 27.339443 0.634546
2006-08-29 06:43:02 51°14.256 2°55.275 18.4698 3.73259 27.300728 0.600836
2006-08-29 06:43:08 51°14.266 2°55.258 18.4583 3.722476 27.231852 0.634546
2006-08-29 06:43:13 51°14.274 2°55.244 18.4509 3.722476 27.231852 0.634546
2006-08-29 06:43:18 51°14.282 2°55.229 18.4528 3.716998 27.198226 0.634546
2006-08-29 06:43:22 51°14.289 2°55.218 18.4458 3.707516 27.135369 0.600836
2006-08-29 06:43:28 51°14.298 2°55.2 18.4383 3.701933 27.098023 0.634546
2006-08-29 06:43:32 51°14.304 2°55.188 18.4308 3.696139 27.060364 0.634546
2006-08-29 06:43:38 51°14.314 2°55.17 18.4309 3.688659 27.011345 0.600836
2006-08-29 06:43:42 51°14.319 2°55.158 18.4204 3.688659 27.011345 0.600836
2006-08-29 06:43:48 51°14.328 2°55.139 18.4209 3.687184 27.006873 0.600836
2006-08-29 06:43:53 51°14.335 2°55.124 18.4179 3.679704 26.953599 0.600836
2006-08-29 06:43:58 51°14.342 2°55.109 18.4308 3.674753 26.917113 0.634546
2006-08-29 06:44:02 51°14.348 2°55.096 18.4257 3.652736 26.741084 0.634546
2006-08-29 06:44:07 51°14.355 2°55.081 18.4243 3.680547 26.971236 0.600836
2006-08-29 06:44:12 51°14.363 2°55.065 18.4321 3.680547 26.971236 0.600836
2006-08-29 06:44:18 51°14.372 2°55.046 18.4427 3.678546 26.95731 0.634546
2006-08-29 06:44:22 51°14.379 2°55.033 18.442 3.678651 26.963797 0.600836
2006-08-29 06:44:28 51°14.39 2°55.015 18.4396 3.670223 26.898089 0.634546
2006-08-29 06:44:32 51°14.397 2°55.004 18.4555 3.682233 26.997623 0.634546
2006-08-29 06:44:38 51°14.409 2°54.986 18.455 3.706991 27.19957 0.634546
2006-08-29 06:44:42 51°14.417 2°54.976 18.4601 3.706991 27.19957 0.634546
2006-08-29 06:44:48 51°14.428 2°54.96 18.4617 3.715524 27.269064 0.634546
2006-08-29 06:44:52 51°14.437 2°54.949 18.4604 3.731433 27.395816 0.634546
2006-08-29 06:44:58 51°14.45 2°54.934 18.4622 3.737965 27.444276 0.668255
2006-08-29 06:45:03 51°14.46 2°54.923 18.4629 3.761671 27.634681 0.634546
2006-08-29 06:45:08 51°14.472 2°54.911 18.4625 3.775262 27.741711 0.634546
2006-08-29 06:45:12 51°14.481 2°54.902 18.4619 3.775262 27.741711 0.634546
2006-08-29 06:45:18 51°14.495 2°54.888 18.444 3.801498 27.953961 0.634546
2006-08-29 06:45:23 51°14.506 2°54.878 18.4446 3.823203 28.128881 0.634546
2006-08-29 06:45:28 51°14.517 2°54.866 18.4448 3.855657 28.391378 0.668255
2006-08-29 06:45:33 51°14.529 2°54.854 18.438 3.884319 28.625085 0.701965
2006-08-29 06:45:38 51°14.54 2°54.843 18.4294 3.895699 28.718348 0.668255
2006-08-29 06:45:43 51°14.552 2°54.831 18.4292 3.895699 28.718348 0.668255
2006-08-29 06:45:47 51°14.562 2°54.822 18.4102 3.931528 29.013248 0.668255
2006-08-29 06:45:53 51°14.577 2°54.807 18.4084 3.947968 29.149255 0.668255
2006-08-29 06:45:58 51°14.59 2°54.796 18.4022 3.972206 29.354587 0.668255
2006-08-29 06:46:02 51°14.6 2°54.786 18.4009 3.990228 29.504386 0.668255
2006-08-29 06:46:07 51°14.613 2°54.774 18.3947 3.999186 29.579156 0.668255
2006-08-29 06:46:12 51°14.627 2°54.762 18.3944 3.994127 29.543173 0.668255
2006-08-29 06:46:18 51°14.642 2°54.748 18.396 3.994127 29.543173 0.668255
2006-08-29 06:46:22 51°14.653 2°54.738 18.3836 4.027747 29.825354 0.668255
2006-08-29 06:46:27 51°14.667 2°54.725 18.3853 4.026271 29.820467 0.668255
2006-08-29 06:46:32 51°14.679 2°54.713 18.3712 4.074542 30.224215 0.668255
2006-08-29 06:46:38 51°14.696 2°54.697 18.3687 4.098468 30.426281 0.668255
2006-08-29 06:46:42 51°14.707 2°54.687 18.3607 4.098468 30.426281 0.668255
2006-08-29 06:46:48 51°14.723 2°54.672 18.3522 4.103105 30.468374 0.668255
2006-08-29 06:46:53 51°14.737 2°54.659 18.3537 4.117334 30.589366 0.634546
2006-08-29 06:46:58 51°14.751 2°54.646 18.3526 4.129245 30.690165 0.634546
2006-08-29 06:47:02 51°14.761 2°54.636 18.3596 4.144845 30.823225 0.634546
2006-08-29 06:47:08 51°14.778 2°54.62 18.356 4.160234 30.956272 0.668255
2006-08-29 06:47:12 51°14.789 2°54.609 18.3568 4.160234 30.956272 0.668255
2006-08-29 06:47:18 51°14.805 2°54.594 18.3634 4.171407 31.054433 0.634546
2006-08-29 06:47:22 51°14.817 2°54.583 18.3788 4.181 31.13899 0.668255
2006-08-29 06:47:28 51°14.833 2°54.569 18.3851 4.183635 31.166332 0.634546
2006-08-29 06:47:32 51°14.845 2°54.558 18.3959 4.193016 31.247036 0.634546
2006-08-29 06:47:38 51°14.861 2°54.542 18.4009 4.199552 31.301923 0.634546
2006-08-29 06:47:42 51°14.871 2°54.531 18.4139 4.199552 31.301923 0.634546
2006-08-29 06:47:48 51°14.888 2°54.516 18.4229 4.207247 31.36702 0.634546
2006-08-29 06:47:51 51°14.895 2°54.508 18.4309 4.220002 31.472049 0.634546
2006-08-29 06:47:58 51°14.915 2°54.49 18.4394 4.228645 31.540689 0.668255
2006-08-29 06:48:03 51°14.928 2°54.477 18.4544 4.248463 31.697408 0.668255
2006-08-29 06:48:08 51°14.942 2°54.464 18.4597 4.269125 31.863984 0.600836
2006-08-29 06:48:12 51°14.952 2°54.454 18.4672 4.269125 31.863984 0.600836
2006-08-29 06:48:18 51°14.97 2°54.439 18.4757 4.280826 31.954259 0.600836
2006-08-29 06:48:22 51°14.981 2°54.429 18.4792 4.28578 31.986059 0.600836
2006-08-29 06:48:28 51°14.996 2°54.414 18.4844 4.30834 32.165735 0.634546
2006-08-29 06:48:32 51°15.007 2°54.404 18.4925 4.324575 32.294399 0.634546
2006-08-29 06:48:38 51°15.023 2°54.388 18.5011 4.344184 32.448986 0.634546
2006-08-29 06:48:42 51°15.034 2°54.377 18.5026 4.344184 32.448986 0.634546
2006-08-29 06:48:48 51°15.05 2°54.363 18.5073 4.344394 32.441116 0.600836
2006-08-29 06:48:52 51°15.062 2°54.353 18.5104 4.363898 32.598232 0.668255
2006-08-29 06:48:58 51°15.078 2°54.338 18.5135 4.357678 32.540059 0.634546
2006-08-29 06:49:02 51°15.089 2°54.328 18.5155 4.37307 32.662283 0.668255
2006-08-29 06:49:08 51°15.105 2°54.313 18.5173 4.393945 32.83033 0.634546
2006-08-29 06:49:12 51°15.116 2°54.303 18.5207 4.393945 32.83033 0.634546
2006-08-29 06:49:18 51°15.132 2°54.287 18.5219 4.401324 32.885679 0.634546
2006-08-29 06:49:22 51°15.143 2°54.276 18.5232 4.393733 32.816547 0.634546
2006-08-29 06:49:28 51°15.159 2°54.26 18.522 4.414714 32.988366 0.600836
2006-08-29 06:49:32 51°15.169 2°54.25 18.5224 4.421672 33.042488 0.634546
2006-08-29 06:49:37 51°15.183 2°54.236 18.5206 4.430845 33.116852 0.634546
2006-08-29 06:49:42 51°15.196 2°54.223 18.5185 4.430845 33.116852 0.634546
2006-08-29 06:49:48 51°15.212 2°54.207 18.5187 4.430107 33.108374 0.600836
2006-08-29 06:49:52 51°15.222 2°54.197 18.517 4.438963 33.178947 0.567127
2006-08-29 06:49:57 51°15.237 2°54.183 18.5165 4.441915 33.201316 0.600836
2006-08-29 06:50:02 51°15.249 2°54.171 18.5133 4.451721 33.283897 0.600836
2006-08-29 06:50:08 51°15.266 2°54.155 18.512 4.438541 33.173108 0.600836
2006-08-29 06:50:13 51°15.279 2°54.142 18.5117 4.438541 33.173108 0.600836
2006-08-29 06:50:18 51°15.293 2°54.129 18.5088 4.453407 33.296267 0.600836
2006-08-29 06:50:22 51°15.304 2°54.12 18.5053 4.468485 33.422419 0.567127
2006-08-29 06:50:25 51°15.312 2°54.112 18.5033 4.452986 33.293319 0.567127
2006-08-29 06:50:33 51°15.334 2°54.092 18.5008 4.465533 33.400623 0.600836
2006-08-29 06:50:38 51°15.348 2°54.078 18.4965 4.480926 33.53008 0.533418
2006-08-29 06:50:41 51°15.356 2°54.07 18.4942 4.480926 33.53008 0.533418
2006-08-29 06:50:48 51°15.375 2°54.051 18.4907 4.482824 33.547728 0.533418
2006-08-29 06:50:52 51°15.386 2°54.04 18.4868 4.488729 33.598358 0.533418
2006-08-29 06:50:58 51°15.401 2°54.024 18.481 4.487147 33.587452 0.567127
2006-08-29 06:51:03 51°15.415 2°54.012 18.4811 4.494317 33.649873 0.567127
2006-08-29 06:51:08 51°15.429 2°53.997 18.4788 4.48177 33.547672 0.567127
2006-08-29 06:51:13 51°15.443 2°53.985 18.4764 4.48177 33.547672 0.567127
2006-08-29 06:51:18 51°15.456 2°53.97 18.4751 4.49516 33.661639 0.533418
2006-08-29 06:51:22 51°15.467 2°53.96 18.4789 4.501909 33.72115 0.533418
2006-08-29 06:51:28 51°15.483 2°53.944 18.4723 4.504545 33.745608 0.533418
2006-08-29 06:51:33 51°15.497 2°53.931 18.4759 4.507813 33.778326 0.499708
2006-08-29 06:51:38 51°15.511 2°53.918 18.4688 4.492947 33.656584 0.533418
2006-08-29 06:51:43 51°15.524 2°53.906 18.4694 4.502963 33.742943 0.499708
2006-08-29 06:51:48 51°15.538 2°53.892 18.4668 4.502963 33.742943 0.499708
2006-08-29 06:51:53 51°15.551 2°53.88 18.4663 4.503912 33.75326 0.499708
2006-08-29 06:51:57 51°15.563 2°53.87 18.4666 4.489467 33.632108 0.499708
2006-08-29 06:52:02 51°15.576 2°53.858 18.4642 4.520255 33.892187 0.533418
2006-08-29 06:52:08 51°15.593 2°53.843 18.4627 4.497375 33.700777 0.533418
2006-08-29 06:52:12 51°15.604 2°53.832 18.4629 4.497375 33.700777 0.533418
2006-08-29 06:52:18 51°15.62 2°53.817 18.459 4.523735 33.926138 0.499708
2006-08-29 06:52:22 51°15.631 2°53.807 18.4616 4.518463 33.88128 0.499708
2006-08-29 06:52:28 51°15.648 2°53.791 18.4553 4.525527 33.941784 0.533418
2006-08-29 06:52:32 51°15.659 2°53.781 18.4545 4.511188 33.82257 0.533418
2006-08-29 06:52:38 51°15.674 2°53.765 18.4551 4.527004 33.956553 0.533418
2006-08-29 06:52:42 51°15.684 2°53.755 18.4543 4.527004 33.956553 0.533418
2006-08-29 06:52:48 51°15.701 2°53.738 18.4575 4.503702 33.76151 0.499708
2006-08-29 06:52:52 51°15.711 2°53.727 18.4577 4.510977 33.823754 0.499708
2006-08-29 06:52:58 51°15.727 2°53.711 18.4526 4.510871 33.82405 0.499708
2006-08-29 06:53:02 51°15.738 2°53.701 18.4523 4.529745 33.984922 0.533418
2006-08-29 06:53:08 51°15.755 2°53.685 18.4537 4.527109 33.964557 0.499708
2006-08-29 06:53:12 51°15.766 2°53.674 18.4549 4.527109 33.964557 0.499708
2006-08-29 06:53:18 51°15.782 2°53.66 18.4563 4.530062 33.99233 0.499708
2006-08-29 06:53:23 51°15.796 2°53.649 18.4532 4.529745 33.988485 0.499708
2006-08-29 06:53:28 51°15.811 2°53.639 18.4498 4.529429 33.98464 0.533418
2006-08-29 06:53:33 51°15.826 2°53.629 18.4523 4.530062 33.990549 0.499708
2006-08-29 06:53:38 51°15.841 2°53.619 18.452 4.52848 33.978447 0.600836
2006-08-29 06:53:43 51°15.856 2°53.61 18.4522 4.52848 33.978447 0.600836
2006-08-29 06:53:48 51°15.871 2°53.601 18.4561 4.530378 33.996176 0.567127
2006-08-29 06:53:53 51°15.886 2°53.594 18.4538 4.52848 33.979635 0.600836
2006-08-29 06:53:57 51°15.899 2°53.589 18.456 4.530378 33.994394 0.567127
2006-08-29 06:54:02 51°15.913 2°53.582 18.4573 4.530167 33.994404 0.533418
2006-08-29 06:54:08 51°15.933 2°53.575 18.4598 4.531327 34.006527 0.567127
2006-08-29 06:54:12 51°15.945 2°53.571 18.4665 4.531327 34.006527 0.567127
2006-08-29 06:54:18 51°15.963 2°53.566 18.4657 4.525106 33.952472 0.533418
2006-08-29 06:54:22 51°15.975 2°53.563 18.4678 4.530905 34.000606 0.533418
2006-08-29 06:54:28 51°15.995 2°53.559 18.4692 4.530378 33.995582 0.533418
2006-08-29 06:54:33 51°16.009 2°53.556 18.4697 4.529113 33.985544 0.499708
2006-08-29 06:54:38 51°16.025 2°53.553 18.4724 4.523524 33.935627 0.533418
2006-08-29 06:54:42 51°16.038 2°53.551 18.4735 4.523524 33.935627 0.533418
2006-08-29 06:54:48 51°16.055 2°53.548 18.4769 4.529113 33.981388 0.533418
2006-08-29 06:54:53 51°16.072 2°53.546 18.4768 4.530062 33.98758 0.567127
2006-08-29 06:54:58 51°16.087 2°53.544 18.4801 4.529851 33.983434 0.533418
2006-08-29 06:55:02 51°16.1 2°53.542 18.4818 4.530061 33.983425 0.533418
2006-08-29 06:55:08 51°16.118 2°53.539 18.4827 4.529007 33.973974 0.533418
2006-08-29 06:55:13 51°16.134 2°53.537 18.4883 4.511399 33.825522 0.533418
2006-08-29 06:55:18 51°16.15 2°53.534 18.4875 4.511399 33.825522 0.533418
2006-08-29 06:55:21 51°16.159 2°53.531 18.4904 4.530061 33.978084 0.499708
2006-08-29 06:55:28 51°16.182 2°53.525 18.491 4.527109 33.953288 0.533418
2006-08-29 06:55:33 51°16.196 2°53.521 18.4959 4.514351 33.844395 0.499708
2006-08-29 06:55:38 51°16.212 2°53.517 18.4974 4.522259 33.907822 0.499708
2006-08-29 06:55:42 51°16.224 2°53.514 18.4994 4.522259 33.907822 0.499708
2006-08-29 06:55:48 51°16.244 2°53.509 18.4995 4.525949 33.937622 0.567127
2006-08-29 06:55:53 51°16.259 2°53.505 18.5011 4.524789 33.926107 0.533418
2006-08-29 06:55:58 51°16.275 2°53.502 18.5019 4.509922 33.799556 0.499708
2006-08-29 06:56:03 51°16.291 2°53.498 18.5032 4.52152 33.895116 0.499708
2006-08-29 06:56:08 51°16.305 2°53.494 18.5053 4.520782 33.885964 0.567127
2006-08-29 06:56:12 51°16.318 2°53.491 18.5086 4.520782 33.885964 0.567127
2006-08-29 06:56:18 51°16.338 2°53.486 18.5132 4.521626 33.890086 0.567127
2006-08-29 06:56:22 51°16.35 2°53.483 18.5122 4.520677 33.88094 0.567127
2006-08-29 06:56:28 51°16.369 2°53.479 18.5157 4.515299 33.83523 0.499708
2006-08-29 06:56:33 51°16.385 2°53.475 18.5161 4.52152 33.885653 0.533418
2006-08-29 06:56:37 51°16.398 2°53.472 18.5176 4.518252 33.857046 0.567127
2006-08-29 06:56:43 51°16.416 2°53.468 18.5188 4.518252 33.857046 0.567127
2006-08-29 06:56:48 51°16.433 2°53.464 18.5207 4.512769 33.809281 0.567127
2006-08-29 06:56:53 51°16.449 2°53.461 18.5212 4.519728 33.864704 0.600836
2006-08-29 06:56:58 51°16.464 2°53.458 18.5209 4.503385 33.726466 0.600836
2006-08-29 06:57:02 51°16.476 2°53.455 18.5208 4.516775 33.836987 0.600836
2006-08-29 06:57:08 51°16.496 2°53.449 18.5225 4.516037 33.828436 0.567127
2006-08-29 06:57:13 51°16.511 2°53.446 18.5236 4.517513 33.840226 0.600836
2006-08-29 06:57:18 51°16.527 2°53.442 18.526 4.517513 33.840226 0.600836
2006-08-29 06:57:22 51°16.539 2°53.439 18.5266 4.514456 33.813993 0.567127
2006-08-29 06:57:28 51°16.559 2°53.433 18.5277 4.495266 33.65137 0.533418
2006-08-29 06:57:33 51°16.574 2°53.43 18.5297 4.517724 33.837274 0.567127
2006-08-29 06:57:38 51°16.59 2°53.425 18.5311 4.518568 33.843757 0.533418
2006-08-29 06:57:42 51°16.603 2°53.423 18.5327 4.518568 33.843757 0.533418
2006-08-29 06:57:48 51°16.622 2°53.42 18.5322 4.492313 33.623116 0.567127
2006-08-29 06:57:53 51°16.637 2°53.416 18.5333 4.51783 33.835798 0.567127
2006-08-29 06:57:58 51°16.654 2°53.412 18.5343 4.519727 33.850532 0.499708
2006-08-29 06:58:03 51°16.67 2°53.408 18.5356 4.505493 33.730027 0.533418
2006-08-29 06:58:08 51°16.685 2°53.403 18.5354 4.505282 33.726495 0.533418
2006-08-29 06:58:13 51°16.701 2°53.399 18.5351 4.505282 33.726495 0.533418
2006-08-29 06:58:18 51°16.717 2°53.395 18.536 4.504544 33.719723 0.533418
2006-08-29 06:58:22 51°16.729 2°53.391 18.535 4.517935 33.830193 0.533418
2006-08-29 06:58:28 51°16.749 2°53.387 18.5365 4.501697 33.694106 0.533418
2006-08-29 06:58:32 51°16.763 2°53.383 18.5356 4.496531 33.64965 0.499708
2006-08-29 06:58:38 51°16.78 2°53.378 18.5365 4.509183 33.755072 0.533418
2006-08-29 06:58:42 51°16.793 2°53.375 18.5363 4.503384 33.705891 0.499708
2006-08-29 06:58:48 51°16.813 2°53.371 18.5361 4.503384 33.705891 0.499708
2006-08-29 06:58:53 51°16.828 2°53.367 18.5352 4.512452 33.780699 0.533418
2006-08-29 06:58:58 51°16.844 2°53.363 18.5349 4.520993 33.854059 0.499708
2006-08-29 06:59:02 51°16.857 2°53.36 18.5377 4.506758 33.732986 0.499708
2006-08-29 06:59:08 51°16.876 2°53.355 18.5363 4.507707 33.739761 0.499708
2006-08-29 06:59:12 51°16.888 2°53.352 18.5374 4.507707 33.739761 0.499708
2006-08-29 06:59:18 51°16.907 2°53.348 18.5377 4.497796 33.657316 0.499708
2006-08-29 06:59:22 51°16.919 2°53.344 18.5388 4.496004 33.64113 0.499708
2006-08-29 06:59:28 51°16.938 2°53.341 18.5398 4.518778 33.832547 0.533418
2006-08-29 06:59:33 51°16.955 2°53.336 18.5406 4.506547 33.730043 0.499708
2006-08-29 06:59:38 51°16.97 2°53.331 18.5403 4.523523 33.871734 0.533418
2006-08-29 06:59:42 51°16.982 2°53.328 18.5422 4.523523 33.871734 0.533418
2006-08-29 06:59:48 51°17.001 2°53.325 18.5409 4.518357 33.828422 0.499708
2006-08-29 06:59:53 51°17.015 2°53.32 18.5444 4.519622 33.840208 0.499708
2006-08-29 06:59:58 51°17.032 2°53.318 18.5458 4.520887 33.849045 0.533418
2006-08-29 07:00:02 51°17.044 2°53.316 18.55 4.50349 33.70325 0.499708
2006-08-29 07:00:08 51°17.064 2°53.313 18.5493 4.525948 33.889114 0.499708
2006-08-29 07:00:12 51°17.076 2°53.312 18.552 4.525948 33.889114 0.499708
2006-08-29 07:00:18 51°17.093 2°53.312 18.5541 4.510765 33.76303 0.533418
2006-08-29 07:00:23 51°17.109 2°53.311 18.5572 4.526581 33.894418 0.465999
2006-08-29 07:00:28 51°17.124 2°53.31 18.5578 4.526159 33.88911 0.499708
2006-08-29 07:00:33 51°17.141 2°53.31 18.5588 4.52637 33.890287 0.465999
2006-08-29 07:00:38 51°17.156 2°53.309 18.5602 4.52753 33.897058 0.499708
2006-08-29 07:00:42 51°17.168 2°53.309 18.5614 4.52753 33.897058 0.499708
2006-08-29 07:00:48 51°17.188 2°53.308 18.5624 4.530588 33.922102 0.499708
2006-08-29 07:00:52 51°17.2 2°53.307 18.5642 4.527319 33.892928 0.499708
2006-08-29 07:00:58 51°17.22 2°53.307 18.5629 4.523945 33.862286 0.499708
2006-08-29 07:01:03 51°17.234 2°53.307 18.5638 4.520149 33.828119 0.533418
2006-08-29 07:01:08 51°17.249 2°53.306 18.565 4.52036 33.829886 0.499708
2006-08-29 07:01:12 51°17.262 2°53.306 18.5662 4.52036 33.829886 0.499708
2006-08-29 07:01:18 51°17.281 2°53.306 18.5643 4.535754 33.957731 0.499708
2006-08-29 07:01:23 51°17.297 2°53.307 18.5641 4.533223 33.934743 0.465999
2006-08-29 07:01:28 51°17.313 2°53.306 18.5621 4.53955 33.986597 0.465999
2006-08-29 07:01:33 51°17.328 2°53.31 18.5613 4.537019 33.965381 0.499708
2006-08-29 07:01:38 51°17.344 2°53.31 18.5601 4.538917 33.978925 0.465999
2006-08-29 07:01:42 51°17.357 2°53.312 18.5613 4.538917 33.978925 0.465999
2006-08-29 07:01:48 51°17.376 2°53.317 18.5604 4.540393 33.991301 0.465999
2006-08-29 07:01:53 51°17.392 2°53.323 18.5583 4.535965 33.954176 0.465999
2006-08-29 07:01:58 51°17.407 2°53.328 18.5577 4.533961 33.937974 0.432289
2006-08-29 07:02:01 51°17.417 2°53.333 18.5554 4.540077 33.989241 0.499708
2006-08-29 07:02:08 51°17.438 2°53.344 18.5529 4.538601 33.976865 0.465999
2006-08-29 07:02:13 51°17.454 2°53.353 18.5497 4.526475 33.876413 0.465999
2006-08-29 07:02:18 51°17.468 2°53.36 18.5522 4.526475 33.876413 0.465999
2006-08-29 07:02:23 51°17.483 2°53.37 18.5505 4.544189 34.025498 0.432289
2006-08-29 07:02:28 51°17.499 2°53.379 18.551 4.545033 34.032571 0.432289
2006-08-29 07:02:32 51°17.51 2°53.387 18.5501 4.537968 33.973928 0.432289
2006-08-29 07:02:38 51°17.528 2°53.401 18.5463 4.546193 34.044077 0.465999
2006-08-29 07:02:43 51°17.543 2°53.41 18.5445 4.544189 34.028462 0.465999
2006-08-29 07:02:48 51°17.559 2°53.419 18.5443 4.544189 34.028462 0.465999
2006-08-29 07:02:52 51°17.571 2°53.428 18.5466 4.543873 34.026994 0.465999
2006-08-29 07:02:58 51°17.587 2°53.439 18.5448 4.544084 34.029356 0.432289
2006-08-29 07:03:03 51°17.603 2°53.449 18.5441 4.542713 34.019638 0.432289
2006-08-29 07:03:08 51°17.618 2°53.458 18.5445 4.547353 34.060332 0.432289
2006-08-29 07:03:12 51°17.629 2°53.467 18.5461 4.547353 34.060332 0.432289
2006-08-29 07:03:18 51°17.648 2°53.479 18.5445 4.543979 34.033215 0.432289
2006-08-29 07:03:22 51°17.659 2°53.488 18.5437 4.547247 34.062415 0.39858
2006-08-29 07:03:28 51°17.676 2°53.498 18.5437 4.546509 34.056223 0.432289
2006-08-29 07:03:33 51°17.692 2°53.509 18.5425 4.540604 34.007285 0.432289
2006-08-29 07:03:38 51°17.706 2°53.519 18.546 4.55136 34.099295 0.432289
2006-08-29 07:03:42 51°17.718 2°53.528 18.5464 4.55136 34.099295 0.432289
2006-08-29 07:03:48 51°17.735 2°53.54 18.5479 4.552625 34.108724 0.432289
2006-08-29 07:03:53 51°17.749 2°53.549 18.5472 4.553258 34.114033 0.39858
2006-08-29 07:03:58 51°17.764 2°53.561 18.5458 4.555683 34.134385 0.432289
2006-08-29 07:04:02 51°17.775 2°53.569 18.5442 4.551992 34.103415 0.39858
2006-08-29 07:04:08 51°17.793 2°53.583 18.5451 4.537968 33.988138 0.39858
2006-08-29 07:04:13 51°17.808 2°53.594 18.545 4.537968 33.988138 0.39858
2006-08-29 07:04:18 51°17.823 2°53.604 18.5462 4.547142 34.063312 0.39858
2006-08-29 07:04:22 51°17.834 2°53.614 18.5474 4.549778 34.084835 0.39858
2006-08-29 07:04:27 51°17.847 2°53.623 18.5461 4.554417 34.120198 0.432289
2006-08-29 07:04:32 51°17.862 2°53.636 18.5453 4.550832 34.0919 0.39858
2006-08-29 07:04:38 51°17.88 2°53.648 18.5439 4.532696 33.941557 0.39858
2006-08-29 07:04:42 51°17.892 2°53.655 18.5418 4.532696 33.941557 0.39858
2006-08-29 07:04:47 51°17.906 2°53.666 18.5435 4.559373 34.164764 0.39858
2006-08-29 07:04:53 51°17.924 2°53.679 18.545 4.549778 34.083647 0.39858
2006-08-29 07:04:58 51°17.939 2°53.688 18.5445 4.557897 34.152374 0.432289
2006-08-29 07:05:03 51°17.953 2°53.698 18.5456 4.552519 34.10665 0.39858
2006-08-29 07:05:08 51°17.967 2°53.709 18.5419 4.552414 34.105765 0.39858
2006-08-29 07:05:13 51°17.982 2°53.72 18.5421 4.552414 34.105765 0.39858
2006-08-29 07:05:18 51°17.997 2°53.732 18.5414 4.55853 34.158279 0.39858
2006-08-29 07:05:21 51°18.005 2°53.735 18.541 4.560639 34.176576 0.432289
2006-08-29 07:05:28 51°18.026 2°53.749 18.544 4.550621 34.091913 0.39858
2006-08-29 07:05:32 51°18.037 2°53.758 18.5445 4.557475 34.150024 0.39858
2006-08-29 07:05:38 51°18.055 2°53.769 18.5421 4.549567 34.083659 0.39858
2006-08-29 07:05:42 51°18.066 2°53.776 18.542 4.549567 34.083659 0.39858
2006-08-29 07:05:47 51°18.081 2°53.788 18.5408 4.54672 34.059179 0.432289
2006-08-29 07:05:52 51°18.096 2°53.798 18.5403 4.54904 34.07983 0.432289
2006-08-29 07:05:58 51°18.113 2°53.81 18.5369 4.545244 34.049169 0.39858
2006-08-29 07:06:02 51°18.124 2°53.817 18.5372 4.559901 34.172167 0.432289
2006-08-29 07:06:08 51°18.142 2°53.83 18.5338 4.55157 34.101064 0.364871
2006-08-29 07:06:13 51°18.156 2°53.84 18.535 4.55157 34.101064 0.364871
2006-08-29 07:06:18 51°18.172 2°53.85 18.5369 4.558213 34.15741 0.39858
2006-08-29 07:06:22 51°18.183 2°53.86 18.5356 4.555894 34.13913 0.39858
2006-08-29 07:06:28 51°18.199 2°53.871 18.5381 4.535965 33.971928 0.39858
2006-08-29 07:06:33 51°18.214 2°53.88 18.5363 4.541764 34.021757 0.364871
2006-08-29 07:06:37 51°18.225 2°53.889 18.5315 4.550622 34.097855 0.39858
2006-08-29 07:06:42 51°18.241 2°53.899 18.5331 4.550622 34.097855 0.39858
2006-08-29 07:06:48 51°18.258 2°53.911 18.5321 4.551571 34.107603 0.39858
2006-08-29 07:06:53 51°18.273 2°53.923 18.5328 4.541132 34.019414 0.364871
2006-08-29 07:06:58 51°18.288 2°53.93 18.5336 4.549567 34.090789 0.39858
2006-08-29 07:07:02 51°18.3 2°53.936 18.5352 4.540815 34.016761 0.39858
2006-08-29 07:07:08 51°18.317 2°53.948 18.5358 4.555367 34.139465 0.39858
2006-08-29 07:07:12 51°18.328 2°53.956 18.5335 4.555367 34.139465 0.39858
2006-08-29 07:07:18 51°18.346 2°53.97 18.5309 4.561166 34.188748 0.364871
2006-08-29 07:07:23 51°18.361 2°53.979 18.533 4.549356 34.091397 0.364871
2006-08-29 07:07:28 51°18.375 2°53.989 18.5347 4.539761 34.012065 0.364871
2006-08-29 07:07:33 51°18.39 2°53.997 18.5335 4.555894 34.144486 0.364871
2006-08-29 07:07:38 51°18.404 2°54.009 18.5351 4.555894 34.145677 0.39858
2006-08-29 07:07:43 51°18.42 2°54.018 18.5328 4.558108 34.161884 0.39858
2006-08-29 07:07:48 51°18.434 2°54.028 18.5344 4.558108 34.161884 0.39858
2006-08-29 07:07:53 51°18.448 2°54.037 18.5335 4.554839 34.135635 0.364871
2006-08-29 07:07:57 51°18.459 2°54.047 18.5335 4.55969 34.178141 0.39858
2006-08-29 07:08:02 51°18.474 2°54.059 18.5314 4.559901 34.17872 0.364871
2006-08-29 07:08:08 51°18.492 2°54.072 18.5333 4.555788 34.144791 0.39858
2006-08-29 07:08:13 51°18.506 2°54.082 18.5326 4.555788 34.144791 0.39858
2006-08-29 07:08:18 51°18.52 2°54.094 18.5316 4.549884 34.095227 0.432289
2006-08-29 07:08:22 51°18.532 2°54.104 18.5302 4.544928 34.053637 0.39858
2006-08-29 07:08:28 51°18.548 2°54.114 18.532 4.560639 34.185513 0.39858
2006-08-29 07:08:33 51°18.562 2°54.128 18.532 4.559163 34.172523 0.39858
2006-08-29 07:08:38 51°18.578 2°54.14 18.5328 4.557475 34.161933 0.364871
2006-08-29 07:08:42 51°18.589 2°54.149 18.5319 4.557475 34.161933 0.364871
2006-08-29 07:08:48 51°18.604 2°54.16 18.5316 4.560639 34.183725 0.39858
2006-08-29 07:08:53 51°18.618 2°54.171 18.532 4.556737 34.152758 0.39858
2006-08-29 07:08:58 51°18.633 2°54.182 18.5315 4.56085 34.18788 0.39858
2006-08-29 07:09:02 51°18.643 2°54.191 18.5311 4.542397 34.03359 0.364871
2006-08-29 07:09:08 51°18.66 2°54.205 18.5323 4.553469 34.125318 0.364871
2006-08-29 07:09:13 51°18.675 2°54.216 18.533 4.550516 34.101726 0.39858
2006-08-29 07:09:18 51°18.688 2°54.226 18.5331 4.550516 34.101726 0.39858
2006-08-29 07:09:22 51°18.7 2°54.235 18.5338 4.535754 33.976673 0.39858
2006-08-29 07:09:28 51°18.717 2°54.248 18.534 4.559584 34.177852 0.39858
2006-08-29 07:09:32 51°18.729 2°54.257 18.5327 4.559373 34.175485 0.364871
2006-08-29 07:09:38 51°18.745 2°54.27 18.532 4.549884 34.096416 0.364871
2006-08-29 07:09:41 51°18.754 2°54.276 18.5319 4.549884 34.096416 0.364871
2006-08-29 07:09:48 51°18.774 2°54.293 18.5328 4.544295 34.048922 0.39858
2006-08-29 07:09:52 51°18.785 2°54.302 18.5331 4.547564 34.076353 0.39858
2006-08-29 07:09:58 51°18.803 2°54.314 18.535 4.556316 34.151004 0.39858
2006-08-29 07:10:03 51°18.816 2°54.325 18.5358 4.558424 34.166326 0.364871
2006-08-29 07:10:08 51°18.83 2°54.337 18.5359 4.540288 34.013523 0.39858
2006-08-29 07:10:12 51°18.841 2°54.347 18.5369 4.540288 34.013523 0.39858
2006-08-29 07:10:18 51°18.858 2°54.362 18.54 4.55136 34.107023 0.364871
2006-08-29 07:10:23 51°18.872 2°54.375 18.5401 4.555261 34.140961 0.39858
2006-08-29 07:10:28 51°18.886 2°54.386 18.5413 4.545666 34.060425 0.364871
2006-08-29 07:10:33 51°18.901 2°54.399 18.5426 4.545139 34.05422 0.432289
2006-08-29 07:10:38 51°18.914 2°54.411 18.5442 4.545982 34.061298 0.432289
2006-08-29 07:10:42 51°18.925 2°54.422 18.545 4.545982 34.061298 0.432289
2006-08-29 07:10:47 51°18.939 2°54.435 18.546 4.54904 34.086959 0.39858
2006-08-29 07:10:53 51°18.955 2°54.448 18.5454 4.532802 33.949541 0.39858
2006-08-29 07:10:58 51°18.969 2°54.462 18.546 4.54187 34.023827 0.364871
2006-08-29 07:11:02 51°18.98 2°54.472 18.5474 4.53955 34.002589 0.364871
2006-08-29 07:11:07 51°18.993 2°54.487 18.5498 4.548618 34.078073 0.39858
2006-08-29 07:11:12 51°19.006 2°54.5 18.5515 4.532591 33.943039 0.39858
2006-08-29 07:11:18 51°19.022 2°54.518 18.5513 4.532591 33.943039 0.39858
2006-08-29 07:11:23 51°19.035 2°54.532 18.5534 4.536914 33.97811 0.364871
2006-08-29 07:11:27 51°19.046 2°54.544 18.5558 4.545244 34.046202 0.364871
2006-08-29 07:11:32 51°19.058 2°54.558 18.557 4.539655 33.998733 0.39858
2006-08-29 07:11:38 51°19.074 2°54.577 18.5578 4.528057 33.900296 0.39858
2006-08-29 07:11:43 51°19.086 2°54.591 18.5578 4.528057 33.900296 0.39858
2006-08-29 07:11:48 51°19.099 2°54.605 18.5587 4.537441 33.978387 0.39858
2006-08-29 07:11:52 51°19.109 2°54.618 18.559 4.536703 33.970421 0.364871
2006-08-29 07:11:58 51°19.125 2°54.636 18.5597 4.540288 33.9993 0.364871
2006-08-29 07:12:02 51°19.135 2°54.647 18.5598 4.542186 34.014624 0.364871
2006-08-29 07:12:08 51°19.15 2°54.666 18.5613 4.541975 34.01167 0.364871
2006-08-29 07:12:12 51°19.161 2°54.677 18.5623 4.541975 34.01167 0.364871
2006-08-29 07:12:18 51°19.176 2°54.695 18.5628 4.529111 33.901456 0.364871
2006-08-29 07:12:23 51°19.188 2°54.71 18.563 4.533434 33.937693 0.39858
2006-08-29 07:12:28 51°19.202 2°54.724 18.5627 4.526686 33.882312 0.364871
2006-08-29 07:12:33 51°19.214 2°54.74 18.563 4.523101 33.849909 0.39858
2006-08-29 07:12:38 51°19.227 2°54.754 18.5636 4.533118 33.932086 0.364871
2006-08-29 07:12:42 51°19.236 2°54.768 18.565 4.533118 33.932086 0.364871
2006-08-29 07:12:48 51°19.252 2°54.786 18.565 4.515509 33.784541 0.39858
2006-08-29 07:12:53 51°19.264 2°54.8 18.5651 4.536281 33.957419 0.364871
2006-08-29 07:12:58 51°19.277 2°54.816 18.5659 4.524577 33.85992 0.331161
2006-08-29 07:13:02 51°19.287 2°54.828 18.566 4.520887 33.82841 0.364871
2006-08-29 07:13:08 51°19.302 2°54.845 18.5663 4.531431 33.915582 0.364871
2006-08-29 07:13:12 51°19.312 2°54.858 18.5673 4.513822 33.767469 0.39858
2006-08-29 07:13:18 51°19.327 2°54.876 18.5671 4.513822 33.767469 0.39858
2006-08-29 07:13:22 51°19.338 2°54.89 18.5667 4.534383 33.939145 0.331161
2006-08-29 07:13:28 51°19.353 2°54.907 18.5668 4.535438 33.947982 0.331161
2006-08-29 07:13:32 51°19.363 2°54.92 18.5677 4.533645 33.93355 0.364871
2006-08-29 07:13:38 51°19.378 2°54.937 18.5675 4.527951 33.883472 0.39858
2006-08-29 07:13:43 51°19.392 2°54.954 18.5673 4.527951 33.883472 0.39858
2006-08-29 07:13:48 51°19.404 2°54.966 18.568 4.534067 33.937676 0.364871
2006-08-29 07:13:53 51°19.416 2°54.983 18.5688 4.520254 33.818987 0.364871
2006-08-29 07:13:58 51°19.43 2°54.997 18.5695 4.531325 33.912336 0.364871
2006-08-29 07:14:02 51°19.44 2°55.01 18.5721 4.534278 33.937079 0.364871
2006-08-29 07:14:08 51°19.456 2°55.026 18.57 4.51804 33.799852 0.331161
2006-08-29 07:14:13 51°19.468 2°55.043 18.5728 4.51804 33.799852 0.331161
2006-08-29 07:14:18 51°19.481 2°55.057 18.5712 4.532591 33.922349 0.364871
2006-08-29 07:14:22 51°19.492 2°55.07 18.5706 4.524577 33.854613 0.364871
2006-08-29 07:14:28 51°19.507 2°55.087 18.5731 4.53238 33.919991 0.39858
2006-08-29 07:14:33 51°19.52 2°55.103 18.5739 4.524155 33.849901 0.39858
2006-08-29 07:14:37 51°19.531 2°55.115 18.5732 4.522468 33.836357 0.364871
2006-08-29 07:14:43 51°19.546 2°55.132 18.5737 4.531747 33.912327 0.39858
2006-08-29 07:14:48 51°19.559 2°55.146 18.5727 4.531747 33.912327 0.39858
2006-08-29 07:14:53 51°19.571 2°55.162 18.5752 4.528795 33.88641 0.364871
2006-08-29 07:14:58 51°19.584 2°55.176 18.5755 4.524893 33.854316 0.364871
2006-08-29 07:15:02 51°19.595 2°55.187 18.5752 4.530271 33.898778 0.364871
2006-08-29 07:15:07 51°19.608 2°55.202 18.576 4.51941 33.807801 0.39858
2006-08-29 07:15:13 51°19.623 2°55.221 18.576 4.51941 33.807801 0.39858
2006-08-29 07:15:18 51°19.637 2°55.236 18.576 4.53006 33.897011 0.39858
2006-08-29 07:15:22 51°19.646 2°55.248 18.5767 4.516774 33.785725 0.331161
2006-08-29 07:15:28 51°19.662 2°55.265 18.5773 4.510343 33.730694 0.39858
2006-08-29 07:15:33 51°19.676 2°55.279 18.5777 4.527951 33.878163 0.364871
2006-08-29 07:15:38 51°19.688 2°55.294 18.5766 4.517618 33.790436 0.39858
2006-08-29 07:15:42 51°19.699 2°55.307 18.576 4.517618 33.790436 0.39858
2006-08-29 07:15:48 51°19.715 2°55.325 18.5771 4.528057 33.877866 0.39858
2006-08-29 07:15:53 51°19.729 2°55.339 18.5763 4.527002 33.869623 0.39858
2006-08-29 07:15:58 51°19.741 2°55.354 18.5774 4.516036 33.776604 0.39858
2006-08-29 07:16:03 51°19.755 2°55.368 18.5769 4.523733 33.841064 0.364871
2006-08-29 07:16:08 51°19.767 2°55.383 18.5785 4.518356 33.796028 0.364871
2006-08-29 07:16:12 51°19.778 2°55.397 18.5775 4.518356 33.796028 0.364871
2006-08-29 07:16:18 51°19.793 2°55.414 18.5784 4.526791 33.866088 0.39858
2006-08-29 07:16:22 51°19.803 2°55.429 18.5769 4.524261 33.844891 0.39858
2006-08-29 07:16:28 51°19.817 2°55.446 18.578 4.503278 33.670386 0.39858
2006-08-29 07:16:33 51°19.83 2°55.462 18.5774 4.525526 33.8549 0.39858
2006-08-29 07:16:38 51°19.841 2°55.479 18.5787 4.525948 33.858432 0.39858
2006-08-29 07:16:42 51°19.851 2°55.492 18.5789 4.526159 33.860199 0.39858
2006-08-29 07:16:48 51°19.865 2°55.513 18.5777 4.526159 33.860199 0.39858
2006-08-29 07:16:53 51°19.877 2°55.53 18.5777 4.524472 33.847836 0.364871
2006-08-29 07:16:57 51°19.887 2°55.542 18.5767 4.525104 33.850188 0.364871
2006-08-29 07:17:02 51°19.9 2°55.557 18.5779 4.522363 33.828406 0.39858
2006-08-29 07:17:07 51°19.912 2°55.574 18.5783 4.52521 33.850482 0.432289
2006-08-29 07:17:13 51°19.926 2°55.592 18.5793 4.52521 33.850482 0.432289
2006-08-29 07:17:18 51°19.939 2°55.607 18.5753 4.52521 33.85225 0.432289
2006-08-29 07:17:23 51°19.951 2°55.624 18.5772 4.524999 33.850484 0.364871
2006-08-29 07:17:28 51°19.963 2°55.64 18.5747 4.525526 33.853721 0.39858
2006-08-29 07:17:33 51°19.975 2°55.657 18.5767 4.526791 33.864908 0.364871
2006-08-29 07:17:38 51°19.987 2°55.675 18.575 4.526897 33.865202 0.39858
2006-08-29 07:17:42 51°19.996 2°55.687 18.5742 4.526897 33.865202 0.39858
2006-08-29 07:17:48 51°20.011 2°55.708 18.5728 4.525842 33.855192 0.39858
2006-08-29 07:17:52 51°20.022 2°55.721 18.5712 4.510975 33.73188 0.39858
2006-08-29 07:17:58 51°20.035 2°55.739 18.5718 4.527318 33.868735 0.39858
2006-08-29 07:18:02 51°20.044 2°55.752 18.5706 4.52774 33.874627 0.39858
2006-08-29 07:18:08 51°20.059 2°55.773 18.5719 4.527846 33.87433 0.364871
2006-08-29 07:18:12 51°20.069 2°55.785 18.5692 4.527846 33.87433 0.364871
2006-08-29 07:18:18 51°20.084 2°55.806 18.568 4.526369 33.863144 0.39858
2006-08-29 07:18:23 51°20.096 2°55.821 18.5698 4.524999 33.852252 0.39858
2006-08-29 07:18:28 51°20.107 2°55.839 18.5688 4.525631 33.85814 0.39858
2006-08-29 07:18:32 51°20.117 2°55.852 18.567 4.526159 33.864915 0.39858
2006-08-29 07:18:38 51°20.131 2°55.871 18.5685 4.52774 33.878166 0.39858
2006-08-29 07:18:43 51°20.144 2°55.886 18.567 4.52774 33.878166 0.39858
2006-08-29 07:18:48 51°20.155 2°55.903 18.5695 4.526897 33.869919 0.39858
2006-08-29 07:18:52 51°20.165 2°55.916 18.5658 4.529216 33.888173 0.364871
2006-08-29 07:18:58 51°20.181 2°55.934 18.5648 4.528478 33.886119 0.39858
2006-08-29 07:19:02 51°20.19 2°55.949 18.5624 4.527318 33.875222 0.432289
2006-08-29 07:19:08 51°20.205 2°55.969 18.5618 4.527951 33.880522 0.39858
2006-08-29 07:19:13 51°20.216 2°55.983 18.5595 4.527951 33.880522 0.39858
2006-08-29 07:19:18 51°20.229 2°55.999 18.5619 4.526897 33.871688 0.432289
2006-08-29 07:19:23 51°20.242 2°56.017 18.5623 4.529216 33.891123 0.432289
2006-08-29 07:19:28 51°20.254 2°56.031 18.5596 4.528584 33.887593 0.364871
2006-08-29 07:19:33 51°20.267 2°56.046 18.5564 4.531114 33.910569 0.432289
2006-08-29 07:19:38 51°20.279 2°56.062 18.5622 4.532274 33.92088 0.432289
2006-08-29 07:19:42 51°20.289 2°56.076 18.5587 4.532274 33.92088 0.432289
2006-08-29 07:19:47 51°20.3 2°56.091 18.5553 4.52289 33.843427 0.39858
2006-08-29 07:19:53 51°20.316 2°56.11 18.554 4.517618 33.801617 0.432289
2006-08-29 07:19:58 51°20.327 2°56.127 18.552 4.531747 33.918234 0.39858
2006-08-29 07:20:02 51°20.337 2°56.138 18.5532 4.530587 33.909104 0.432289
2006-08-29 07:20:07 51°20.349 2°56.157 18.5547 4.530482 33.909992 0.432289
2006-08-29 07:20:12 51°20.361 2°56.172 18.5481 4.534067 33.939449 0.432289
2006-08-29 07:20:18 51°20.375 2°56.193 18.5436 4.534067 33.939449 0.432289
2006-08-29 07:20:23 51°20.387 2°56.209 18.5366 4.529638 33.902332 0.39858
2006-08-29 07:20:27 51°20.396 2°56.223 18.5352 4.534383 33.945057 0.432289
2006-08-29 07:20:32 51°20.407 2°56.24 18.5326 4.535016 33.95036 0.432289
2006-08-29 07:20:38 51°20.421 2°56.262 18.5357 4.535649 33.955072 0.432289
2006-08-29 07:20:43 51°20.431 2°56.281 18.5262 4.535649 33.955072 0.432289
2006-08-29 07:20:48 51°20.442 2°56.3 18.5255 4.529744 33.906759 0.499708
2006-08-29 07:20:52 51°20.452 2°56.312 18.5269 4.529744 33.908531 0.499708
2006-08-29 07:20:58 51°20.463 2°56.335 18.5238 4.53238 33.934766 0.432289
2006-08-29 07:21:02 51°20.472 2°56.35 18.517 4.52637 33.887925 0.465999
2006-08-29 07:21:08 51°20.484 2°56.373 18.5163 4.531326 33.933021 0.432289
2006-08-29 07:21:12 51°20.492 2°56.388 18.5137 4.531326 33.933021 0.432289
2006-08-29 07:21:18 51°20.505 2°56.409 18.5144 4.519516 33.835196 0.465999
2006-08-29 07:21:23 51°20.515 2°56.429 18.5115 4.51319 33.785707 0.465999
2006-08-29 07:21:28 51°20.526 2°56.448 18.5086 4.525105 33.886767 0.499708
2006-08-29 07:21:33 51°20.537 2°56.466 18.5041 4.523101 33.872331 0.499708
2006-08-29 07:21:38 51°20.547 2°56.485 18.5029 4.513928 33.798373 0.465999
2006-08-29 07:21:42 51°20.556 2°56.499 18.4982 4.513928 33.798373 0.465999
2006-08-29 07:21:48 51°20.568 2°56.522 18.4966 4.517197 33.829313 0.499708
2006-08-29 07:21:53 51°20.579 2°56.541 18.4959 4.510871 33.778631 0.465999
2006-08-29 07:21:58 51°20.59 2°56.559 18.4972 4.502646 33.710283 0.432289
2006-08-29 07:22:02 51°20.599 2°56.573 18.4979 4.488939 33.59661 0.432289
2006-08-29 07:22:08 51°20.612 2°56.596 18.5019 4.503701 33.723824 0.465999
2006-08-29 07:22:12 51°20.62 2°56.61 18.4994 4.503701 33.723824 0.465999
2006-08-29 07:22:18 51°20.633 2°56.634 18.5005 4.494211 33.648402 0.465999
2006-08-29 07:22:22 51°20.642 2°56.648 18.5 4.497691 33.679913 0.432289
2006-08-29 07:22:28 51°20.654 2°56.67 18.5024 4.490838 33.624234 0.432289
2006-08-29 07:22:33 51°20.665 2°56.689 18.5049 4.490099 33.619808 0.432289
2006-08-29 07:22:38 51°20.675 2°56.709 18.5046 4.483457 33.564732 0.39858
2006-08-29 07:22:42 51°20.684 2°56.724 18.5069 4.483457 33.564732 0.39858
2006-08-29 07:22:48 51°20.695 2°56.746 18.5081 4.479556 33.531464 0.432289
2006-08-29 07:22:53 51°20.706 2°56.763 18.5109 4.475549 33.496734 0.39858
2006-08-29 07:22:58 51°20.716 2°56.784 18.5138 4.472386 33.469659 0.432289
2006-08-29 07:23:02 51°20.725 2°56.798 18.5146 4.473862 33.481437 0.39858
2006-08-29 07:23:08 51°20.737 2°56.82 18.5158 4.469539 33.44407 0.39858
2006-08-29 07:23:12 51°20.745 2°56.837 18.519 4.469539 33.44407 0.39858
2006-08-29 07:23:17 51°20.756 2°56.855 18.5191 4.459734 33.36082 0.39858
2006-08-29 07:23:22 51°20.766 2°56.874 18.5203 4.464162 33.396721 0.39858
2006-08-29 07:23:28 51°20.779 2°56.896 18.5227 4.456887 33.334088 0.39858
2006-08-29 07:23:33 51°20.788 2°56.916 18.522 4.453724 33.30646 0.39858
2006-08-29 07:23:38 51°20.799 2°56.934 18.5248 4.450877 33.280903 0.432289
2006-08-29 07:23:42 51°20.806 2°56.95 18.5273 4.44297 33.212447 0.432289
2006-08-29 07:23:47 51°20.817 2°56.968 18.526 4.44297 33.212447 0.432289
2006-08-29 07:23:53 51°20.829 2°56.993 18.5273 4.440228 33.188368 0.432289
2006-08-29 07:23:58 51°20.84 2°57.012 18.5305 4.447925 33.250412 0.432289
2006-08-29 07:24:02 51°20.848 2°57.028 18.5294 4.440545 33.188699 0.39858
2006-08-29 07:24:08 51°20.862 2°57.049 18.5327 4.438963 33.173742 0.39858
2006-08-29 07:24:12 51°20.869 2°57.065 18.5331 4.438963 33.173742 0.39858
2006-08-29 07:24:17 51°20.879 2°57.084 18.5312 4.429158 33.090636 0.39858
2006-08-29 07:24:22 51°20.89 2°57.103 18.5349 4.421356 33.023724 0.364871
2006-08-29 07:24:27 51°20.9 2°57.123 18.5341 4.434113 33.129161 0.39858
2006-08-29 07:24:33 51°20.913 2°57.146 18.5357 4.434429 33.131227 0.432289
2006-08-29 07:24:38 51°20.924 2°57.164 18.5329 4.434218 33.126002 0.432289
2006-08-29 07:24:41 51°20.93 2°57.176 18.5352 4.434218 33.126002 0.432289
2006-08-29 07:24:48 51°20.946 2°57.2 18.5329 4.429158 33.084871 0.39858
2006-08-29 07:24:53 51°20.956 2°57.22 18.5279 4.420723 33.013263 0.432289
2006-08-29 07:24:58 51°20.966 2°57.239 18.5264 4.422832 33.030875 0.39858
2006-08-29 07:25:02 51°20.975 2°57.254 18.5211 4.430739 33.095778 0.39858
2006-08-29 07:25:07 51°20.986 2°57.273 18.5219 4.431583 33.101094 0.39858
2006-08-29 07:25:13 51°20.999 2°57.295 18.5224 4.431583 33.101094 0.39858
2006-08-29 07:25:18 51°21.009 2°57.315 18.5229 4.409547 32.917653 0.39858
2006-08-29 07:25:23 51°21.02 2°57.334 18.5172 4.428209 33.074062 0.39858
2006-08-29 07:25:28 51°21.03 2°57.355 18.5156 4.418614 32.994504 0.39858
2006-08-29 07:25:32 51°21.037 2°57.371 18.5144 4.421145 33.020237 0.39858
2006-08-29 07:25:37 51°21.048 2°57.389 18.5125 4.406279 32.896102 0.39858
2006-08-29 07:25:42 51°21.058 2°57.406 18.5127 4.406279 32.896102 0.39858
2006-08-29 07:25:48 51°21.07 2°57.429 18.5136 4.417244 32.98938 0.364871
2006-08-29 07:25:52 51°21.079 2°57.443 18.5168 4.418404 32.999641 0.364871
2006-08-29 07:25:58 51°21.091 2°57.465 18.5167 4.419247 33.007261 0.39858
2006-08-29 07:26:01 51°21.097 2°57.476 18.5193 4.412183 32.949988 0.39858
2006-08-29 07:26:08 51°21.111 2°57.502 18.5206 4.414397 32.970202 0.39858
2006-08-29 07:26:13 51°21.121 2°57.523 18.5237 4.414397 32.970202 0.39858
2006-08-29 07:26:18 51°21.132 2°57.541 18.5261 4.413238 32.962239 0.39858
2006-08-29 07:26:23 51°21.141 2°57.562 18.5254 4.400164 32.853073 0.39858
2006-08-29 07:26:28 51°21.153 2°57.579 18.5303 4.409126 32.927324 0.432289
2006-08-29 07:26:33 51°21.162 2°57.6 18.5305 4.390992 32.775371 0.39858
2006-08-29 07:26:38 51°21.172 2°57.618 18.5319 4.404698 32.890922 0.364871
2006-08-29 07:26:42 51°21.181 2°57.633 18.5356 4.404698 32.890922 0.364871
2006-08-29 07:26:48 51°21.193 2°57.657 18.5361 4.393733 32.796533 0.39858
2006-08-29 07:26:53 51°21.203 2°57.676 18.537 4.403327 32.876041 0.39858
2006-08-29 07:26:58 51°21.214 2°57.696 18.5372 4.394366 32.798955 0.39858
2006-08-29 07:27:02 51°21.221 2°57.712 18.5396 4.400691 32.848887 0.432289
2006-08-29 07:27:08 51°21.233 2°57.735 18.5399 4.402167 32.860062 0.39858
2006-08-29 07:27:12 51°21.242 2°57.749 18.541 4.402167 32.860062 0.39858
2006-08-29 07:27:18 51°21.254 2°57.774 18.5405 4.403116 32.866264 0.39858
2006-08-29 07:27:21 51°21.259 2°57.785 18.5435 4.398266 32.824075 0.39858
2006-08-29 07:27:28 51°21.273 2°57.811 18.5458 4.399004 32.828518 0.432289
2006-08-29 07:27:33 51°21.284 2°57.83 18.5462 4.397212 32.810706 0.432289
2006-08-29 07:27:38 51°21.294 2°57.851 18.5473 4.40417 32.869338 0.39858
2006-08-29 07:27:42 51°21.303 2°57.865 18.5495 4.40417 32.869338 0.39858
2006-08-29 07:27:48 51°21.314 2°57.889 18.5478 4.399426 32.82975 0.39858
2006-08-29 07:27:52 51°21.323 2°57.903 18.5504 4.28852 31.905249 0.39858
2006-08-29 07:27:58 51°21.335 2°57.928 18.5513 4.399426 32.826891 0.39858
2006-08-29 07:28:03 51°21.345 2°57.946 18.5543 4.386985 32.722557 0.432289
2006-08-29 07:28:08 51°21.355 2°57.966 18.5539 4.400269 32.832213 0.432289
2006-08-29 07:28:12 51°21.364 2°57.981 18.556 4.400269 32.832213 0.432289
2006-08-29 07:28:18 51°21.375 2°58.004 18.5586 4.401007 32.836083 0.432289
2006-08-29 07:28:22 51°21.383 2°58.02 18.56 4.401324 32.838721 0.432289
2006-08-29 07:28:28 51°21.396 2°58.042 18.5638 4.4028 32.849891 0.39858
2006-08-29 07:28:33 51°21.405 2°58.062 18.5631 4.402694 32.84844 0.39858
2006-08-29 07:28:38 51°21.417 2°58.081 18.5664 4.388883 32.731543 0.432289
2006-08-29 07:28:42 51°21.424 2°58.097 18.5667 4.388883 32.731543 0.432289
2006-08-29 07:28:48 51°21.437 2°58.119 18.5684 4.4028 32.847032 0.39858
2006-08-29 07:28:53 51°21.447 2°58.14 18.5694 4.40301 32.846504 0.432289
2006-08-29 07:28:58 51°21.458 2°58.158 18.5719 4.399953 32.819288 0.39858
2006-08-29 07:29:02 51°21.466 2°58.175 18.5718 4.403116 32.844524 0.39858
2006-08-29 07:29:07 51°21.477 2°58.192 18.5738 4.404697 32.854856 0.39858
2006-08-29 07:29:13 51°21.488 2°58.216 18.5732 4.403432 32.844304 0.39858
2006-08-29 07:29:18 51°21.499 2°58.235 18.5768 4.403432 32.844304 0.39858
2006-08-29 07:29:22 51°21.507 2°58.251 18.5759 4.401534 32.826764 0.432289
2006-08-29 07:29:28 51°21.519 2°58.273 18.5775 4.402272 32.831775 0.432289
2006-08-29 07:29:32 51°21.527 2°58.289 18.5779 4.40301 32.835644 0.432289
2006-08-29 07:29:38 51°21.539 2°58.315 18.578 4.402799 32.833314 0.432289
2006-08-29 07:29:43 51°21.549 2°58.333 18.5794 4.402799 32.833314 0.432289
2006-08-29 07:29:48 51°21.559 2°58.353 18.5791 4.403643 32.838633 0.432289
2006-08-29 07:29:52 51°21.568 2°58.367 18.5807 4.397317 32.785325 0.39858
2006-08-29 07:29:58 51°21.581 2°58.39 18.5807 4.40164 32.820218 0.39858
2006-08-29 07:30:03 51°21.592 2°58.408 18.5799 4.395841 32.770171 0.432289
2006-08-29 07:30:08 51°21.602 2°58.427 18.5791 4.396157 32.772807 0.432289
2006-08-29 07:30:12 51°21.611 2°58.443 18.5782 4.396157 32.772807 0.432289
2006-08-29 07:30:18 51°21.624 2°58.464 18.579 4.400585 32.810287 0.432289
2006-08-29 07:30:23 51°21.634 2°58.483 18.5785 4.397739 32.785418 0.432289
2006-08-29 07:30:28 51°21.646 2°58.5 18.5793 4.39679 32.777509 0.432289
2006-08-29 07:30:33 51°21.657 2°58.518 18.5808 4.395419 32.764376 0.39858
2006-08-29 07:30:38 51°21.669 2°58.536 18.5815 4.397633 32.782828 0.39858
2006-08-29 07:30:42 51°21.678 2°58.548 18.5818 4.397633 32.782828 0.39858
2006-08-29 07:30:48 51°21.692 2°58.57 18.5865 4.396473 32.773163 0.432289
2006-08-29 07:30:52 51°21.703 2°58.581 18.5859 4.390464 32.723084 0.364871
2006-08-29 07:30:58 51°21.715 2°58.603 18.5835 4.3931 32.746186 0.39858
2006-08-29 07:31:02 51°21.726 2°58.614 18.5895 4.383506 32.665681 0.39858
2006-08-29 07:31:08 51°21.739 2°58.638 18.5868 4.391307 32.729542 0.432289
2006-08-29 07:31:13 51°21.75 2°58.652 18.5873 4.391307 32.729542 0.432289
2006-08-29 07:31:18 51°21.761 2°58.671 18.5854 4.391518 32.731869 0.39858
2006-08-29 07:31:23 51°21.773 2°58.688 18.5847 4.38941 32.713161 0.39858
2006-08-29 07:31:28 51°21.784 2°58.704 18.584 4.388039 32.701174 0.432289
2006-08-29 07:31:33 51°21.796 2°58.722 18.5831 4.388039 32.699467 0.432289
2006-08-29 07:31:38 51°21.807 2°58.74 18.5845 4.387406 32.693629 0.432289
2006-08-29 07:31:43 51°21.819 2°58.756 18.584 4.387406 32.693629 0.432289
2006-08-29 07:31:48 51°21.831 2°58.774 18.5853 4.386352 32.684278 0.432289
2006-08-29 07:31:52 51°21.84 2°58.787 18.5872 4.381713 32.644506 0.39858
2006-08-29 07:31:58 51°21.853 2°58.81 18.5829 4.380027 32.631593 0.432289
2006-08-29 07:32:02 51°21.863 2°58.821 18.5847 4.376653 32.602932 0.39858
2006-08-29 07:32:08 51°21.877 2°58.843 18.5846 4.37602 32.598799 0.432289
2006-08-29 07:32:12 51°21.887 2°58.856 18.585 4.37602 32.598799 0.432289
2006-08-29 07:32:18 51°21.9 2°58.876 18.5861 4.374123 32.583564 0.39858
2006-08-29 07:32:23 51°21.912 2°58.894 18.5856 4.374123 32.583564 0.39858
2006-08-29 07:32:28 51°21.923 2°58.912 18.5855 4.371909 32.564565 0.39858
2006-08-29 07:32:31 51°21.931 2°58.922 18.5858 4.373068 32.57422 0.39858
2006-08-29 07:32:38 51°21.946 2°58.947 18.587 4.370327 32.550833 0.39858
2006-08-29 07:32:43 51°21.958 2°58.962 18.5923 4.370116 32.549078 0.39858
2006-08-29 07:32:48 51°21.97 2°58.982 18.5895 4.370116 32.549078 0.39858
2006-08-29 07:32:53 51°21.981 2°58.996 18.5906 4.360839 32.471294 0.39858
2006-08-29 07:32:58 51°21.992 2°59.016 18.5901 4.362209 32.4827 0.39858
2006-08-29 07:33:02 51°22.003 2°59.029 18.5928 4.363896 32.496173 0.39858
2006-08-29 07:33:08 51°22.015 2°59.051 18.5919 4.359363 32.457884 0.39858
2006-08-29 07:33:12 51°22.026 2°59.063 18.5939 4.359363 32.457884 0.39858
2006-08-29 07:33:18 51°22.039 2°59.085 18.5943 4.362947 32.488276 0.364871
2006-08-29 07:33:23 51°22.051 2°59.104 18.5953 4.359468 32.458761 0.364871
2006-08-29 07:33:28 51°22.062 2°59.121 18.5948 4.359679 32.459951 0.364871
2006-08-29 07:33:33 51°22.073 2°59.138 18.5956 4.360417 32.463834 0.39858
2006-08-29 07:33:38 51°22.084 2°59.156 18.5957 4.349137 32.369995 0.39858
2006-08-29 07:33:43 51°22.096 2°59.173 18.5974 4.349137 32.369995 0.39858
2006-08-29 07:33:48 51°22.109 2°59.191 18.5978 4.35873 32.448671 0.39858
2006-08-29 07:33:53 51°22.12 2°59.208 18.5987 4.353459 32.402567 0.39858
2006-08-29 07:33:58 51°22.131 2°59.225 18.6002 4.346817 32.348457 0.39858
2006-08-29 07:34:03 51°22.144 2°59.241 18.601 4.353986 32.406952 0.39858
2006-08-29 07:34:08 51°22.155 2°59.256 18.6022 4.354302 32.410146 0.364871
2006-08-29 07:34:13 51°22.168 2°59.273 18.6034 4.354302 32.410146 0.364871
2006-08-29 07:34:18 51°22.18 2°59.29 18.6041 4.356832 32.430629 0.364871
2006-08-29 07:34:23 51°22.191 2°59.307 18.6039 4.35367 32.403758 0.39858
2006-08-29 07:34:28 51°22.204 2°59.324 18.6047 4.333955 32.238729 0.364871
2006-08-29 07:34:33 51°22.216 2°59.34 18.607 4.354724 32.410836 0.39858
2006-08-29 07:34:38 51°22.228 2°59.358 18.6064 4.354513 32.407956 0.39858
2006-08-29 07:34:42 51°22.237 2°59.371 18.6095 4.352615 32.390485 0.39858
2006-08-29 07:34:48 51°22.25 2°59.392 18.6102 4.352615 32.390485 0.39858
2006-08-29 07:34:52 51°22.262 2°59.404 18.609 4.354513 32.405703 0.39858
2006-08-29 07:34:58 51°22.276 2°59.423 18.6096 4.353986 32.400757 0.432289
2006-08-29 07:35:02 51°22.285 2°59.435 18.6111 4.3562 32.418041 0.432289
2006-08-29 07:35:08 51°22.3 2°59.453 18.6119 4.35388 32.398754 0.39858
2006-08-29 07:35:12 51°22.311 2°59.463 18.611 4.35388 32.398754 0.39858
2006-08-29 07:35:18 51°22.327 2°59.479 18.613 4.354724 32.404078 0.432289
2006-08-29 07:35:22 51°22.337 2°59.492 18.6135 4.353037 32.387801 0.39858
2006-08-29 07:35:28 51°22.354 2°59.505 18.6124 4.350085 32.364384 0.39858
2006-08-29 07:35:33 51°22.367 2°59.52 18.6123 4.350507 32.36789 0.432289
2006-08-29 07:35:38 51°22.381 2°59.53 18.6126 4.350191 32.364698 0.39858
2006-08-29 07:35:42 51°22.391 2°59.543 18.614 4.350191 32.364698 0.39858
2006-08-29 07:35:48 51°22.408 2°59.557 18.6144 4.350928 32.370271 0.432289
2006-08-29 07:35:52 51°22.419 2°59.567 18.614 4.340491 32.282958 0.39858
2006-08-29 07:35:58 51°22.436 2°59.583 18.6144 4.349347 32.356 0.432289
2006-08-29 07:36:03 51°22.449 2°59.595 18.6146 4.348398 32.348113 0.432289
2006-08-29 07:36:08 51°22.463 2°59.607 18.6192 4.345025 32.320072 0.39858
2006-08-29 07:36:13 51°22.476 2°59.621 18.6156 4.346606 32.332654 0.39858
2006-08-29 07:36:18 51°22.491 2°59.632 18.6176 4.346606 32.332654 0.39858
2006-08-29 07:36:23 51°22.504 2°59.645 18.6206 4.34629 32.329463 0.39858
2006-08-29 07:36:28 51°22.518 2°59.658 18.6183 4.344919 32.31695 0.432289
2006-08-29 07:36:32 51°22.529 2°59.668 18.6181 4.341862 32.292103 0.39858
2006-08-29 07:36:38 51°22.545 2°59.682 18.6196 4.346079 32.326026 0.432289
2006-08-29 07:36:43 51°22.56 2°59.694 18.6207 4.346079 32.326026 0.432289
2006-08-29 07:36:48 51°22.573 2°59.707 18.6206 4.342494 32.296238 0.432289
2006-08-29 07:36:52 51°22.584 2°59.716 18.6216 4.341862 32.290421 0.432289
2006-08-29 07:36:58 51°22.602 2°59.732 18.6226 4.330792 32.197899 0.39858
2006-08-29 07:37:02 51°22.613 2°59.741 18.6215 4.334482 32.229668 0.39858
2006-08-29 07:37:08 51°22.629 2°59.754 18.6238 4.342284 32.292803 0.39858
2006-08-29 07:37:13 51°22.643 2°59.768 18.626 4.342284 32.292803 0.39858
2006-08-29 07:37:18 51°22.657 2°59.779 18.6259 4.339859 32.272656 0.432289
2006-08-29 07:37:23 51°22.67 2°59.791 18.6277 4.339753 32.269538 0.39858
2006-08-29 07:37:28 51°22.683 2°59.802 18.6282 4.339648 32.269222 0.432289
2006-08-29 07:37:32 51°22.693 2°59.809 18.6289 4.327103 32.165019 0.39858
2006-08-29 07:37:38 51°22.707 2°59.824 18.6292 4.333744 32.217941 0.39858
2006-08-29 07:37:42 51°22.716 2°59.829 18.6302 4.333744 32.217941 0.39858
2006-08-29 07:37:48 51°22.729 2°59.84 18.6317 4.337961 32.253528 0.432289
2006-08-29 07:37:53 51°22.74 2°59.849 18.6313 4.334166 32.220324 0.432289
2006-08-29 07:37:58 51°22.75 2°59.857 18.6321 4.335115 32.227645 0.432289
2006-08-29 07:38:03 51°22.76 2°59.864 18.6333 4.336169 32.235282 0.432289
2006-08-29 07:38:08 51°22.77 2°59.872 18.6346 4.328367 32.16882 0.432289
2006-08-29 07:38:13 51°22.78 2°59.88 18.6336 4.333639 32.213149 0.432289
2006-08-29 07:38:18 51°22.79 2°59.888 18.6331 4.333639 32.213149 0.432289
2006-08-29 07:38:22 51°22.798 2°59.894 18.6336 4.333112 32.207653 0.39858
2006-08-29 07:38:28 51°22.81 2°59.902 18.634 4.332795 32.205027 0.432289
2006-08-29 07:38:33 51°22.819 2°59.909 18.6344 4.332057 32.197222 0.432289
2006-08-29 07:38:38 51°22.829 2°59.918 18.6341 4.330792 32.186159 0.465999
2006-08-29 07:38:43 51°22.838 2°59.925 18.6352 4.330792 32.186159 0.465999
2006-08-29 07:38:48 51°22.848 2°59.931 18.6364 4.330476 32.18465 0.432289
2006-08-29 07:38:52 51°22.855 2°59.935 18.6361 4.328684 32.168095 0.465999
2006-08-29 07:38:58 51°22.863 2°59.942 18.6374 4.330581 32.183849 0.465999
2006-08-29 07:39:03 51°22.872 2°59.947 18.6387 4.329949 32.17748 0.432289
2006-08-29 07:39:08 51°22.879 2°59.951 18.6382 4.327524 32.156793 0.465999
2006-08-29 07:39:12 51°22.885 2°59.954 18.6391 4.327524 32.156793 0.465999
2006-08-29 07:39:18 51°22.894 2°59.958 18.6393 4.327419 32.156476 0.432289
2006-08-29 07:39:23 51°22.901 2°59.962 18.6402 4.32784 32.159418 0.432289
2006-08-29 07:39:28 51°22.908 2°59.966 18.6407 4.323307 32.120675 0.465999
2006-08-29 07:39:33 51°22.913 2°59.97 18.6408 4.327208 32.154167 0.465999
2006-08-29 07:39:38 51°22.92 2°59.972 18.6428 4.327313 32.15281 0.465999
2006-08-29 07:39:42 51°22.925 2°59.975 18.6419 4.327313 32.15281 0.465999
2006-08-29 07:39:48 51°22.931 2°59.976 18.6435 4.312976 32.033835 0.499708
2006-08-29 07:39:52 51°22.935 2°59.979 18.6451 4.316455 32.062141 0.465999
2006-08-29 07:39:58 51°22.941 2°59.983 18.6455 4.324888 32.133242 0.465999
2006-08-29 07:40:02 51°22.945 2°59.984 18.6465 4.322674 32.112081 0.432289
2006-08-29 07:40:08 51°22.95 2°59.987 18.6478 4.315717 32.054906 0.465999
2006-08-29 07:40:13 51°22.955 2°59.989 18.6479 4.315717 32.054906 0.465999
2006-08-29 07:40:18 51°22.958 2°59.992 18.6483 4.324888 32.131011 0.465999
2006-08-29 07:40:21 51°22.961 2°59.994 18.649 4.321831 32.105082 0.465999
2006-08-29 07:40:28 51°22.966 2°59.996 18.6463 4.322358 32.108342 0.499708
2006-08-29 07:40:33 51°22.97 2°59.998 18.6459 4.318668 32.076613 0.499708
2006-08-29 07:40:38 51°22.974 3°0 18.6476 4.323729 32.117485 0.499708
2006-08-29 07:40:42 51°22.977 3°0.002 18.6476 4.323729 32.117485 0.499708
2006-08-29 07:40:48 51°22.98 3°0.005 18.6474 4.323834 32.117245 0.465999
2006-08-29 07:40:53 51°22.984 3°0.006 18.6467 4.324045 32.118437 0.499708
2006-08-29 07:40:58 51°22.987 3°0.009 18.6487 4.319828 32.08345 0.499708
2006-08-29 07:41:02 51°22.989 3°0.012 18.6505 4.320144 32.086631 0.432289
2006-08-29 07:41:08 51°22.991 3°0.013 18.6495 4.319406 32.081065 0.432289
2006-08-29 07:41:12 51°22.993 3°0.014 18.6514 4.319406 32.081065 0.432289
2006-08-29 07:41:18 51°22.996 3°0.015 18.6528 4.323096 32.111122 0.499708
2006-08-29 07:41:23 51°22.998 3°0.017 18.654 4.316665 32.058326 0.465999
2006-08-29 07:41:28 51°23 3°0.019 18.6555 4.319195 32.077089 0.465999
2006-08-29 07:41:33 51°23.002 3°0.02 18.6563 4.318879 32.073909 0.465999
2006-08-29 07:41:38 51°23.003 3°0.021 18.6577 4.318141 32.068344 0.465999
2006-08-29 07:41:43 51°23.006 3°0.021 18.6585 4.316665 32.055545 0.465999
2006-08-29 07:41:48 51°23.007 3°0.023 18.6603 4.316665 32.055545 0.465999
2006-08-29 07:41:53 51°23.008 3°0.024 18.6608 4.319512 32.077486 0.465999
2006-08-29 07:41:58 51°23.01 3°0.025 18.6602 4.320671 32.086549 0.499708
2006-08-29 07:42:01 51°23.011 3°0.026 18.6611 4.320144 32.081064 0.499708
2006-08-29 07:42:08 51°23.013 3°0.027 18.663 4.319933 32.078758 0.499708
2006-08-29 07:42:13 51°23.015 3°0.027 18.6625 4.319933 32.078758 0.499708
2006-08-29 07:42:18 51°23.017 3°0.028 18.6627 4.315611 32.040685 0.465999
2006-08-29 07:42:23 51°23.019 3°0.029 18.6659 4.321198 32.086468 0.465999
2006-08-29 07:42:28 51°23.021 3°0.03 18.6662 4.317298 32.052449 0.465999
2006-08-29 07:42:33 51°23.022 3°0.032 18.6635 4.318774 32.065245 0.465999
2006-08-29 07:42:38 51°23.024 3°0.032 18.6641 4.31909 32.067312 0.465999
2006-08-29 07:42:42 51°23.025 3°0.031 18.6643 4.31909 32.067312 0.465999
2006-08-29 07:42:48 51°23.025 3°0.031 18.6633 4.320566 32.078996 0.465999
2006-08-29 07:42:53 51°23.025 3°0.031 18.6645 4.320039 32.074624 0.465999
2006-08-29 07:42:58 51°23.024 3°0.03 18.6639 4.312027 32.005966 0.465999
2006-08-29 07:43:02 51°23.024 3°0.03 18.6638 4.319828 32.070094 0.465999
2006-08-29 07:43:08 51°23.023 3°0.03 18.6653 4.316771 32.045854 0.499708
2006-08-29 07:43:13 51°23.023 3°0.03 18.6664 4.316665 32.043869 0.499708
2006-08-29 07:43:18 51°23.022 3°0.029 18.6649 4.316665 32.043869 0.499708
2006-08-29 07:43:22 51°23.022 3°0.029 18.6659 4.317719 32.052054 0.499708
2006-08-29 07:43:28 51°23.021 3°0.029 18.6667 4.319195 32.064849 0.465999
2006-08-29 07:43:32 51°23.02 3°0.028 18.6686 4.318879 32.062782 0.465999
2006-08-29 07:43:38 51°23.02 3°0.029 18.6677 4.318984 32.0631 0.499708
2006-08-29 07:43:42 51°23.019 3°0.028 18.6698 4.318984 32.0631 0.499708
2006-08-29 07:43:48 51°23.019 3°0.028 18.6715 4.317614 32.051736 0.465999
2006-08-29 07:43:53 51°23.018 3°0.029 18.67 4.31909 32.063975 0.465999
2006-08-29 07:43:58 51°23.018 3°0.028 18.6705 4.298322 31.89072 0.499708
2006-08-29 07:44:03 51°23.016 3°0.027 18.6688 4.318879 32.061114 0.465999
2006-08-29 07:44:08 51°23.016 3°0.027 18.6707 4.317087 32.045698 0.465999
2006-08-29 07:44:13 51°23.015 3°0.026 18.6711 4.317087 32.045698 0.465999
2006-08-29 07:44:18 51°23.015 3°0.026 18.6698 4.303171 31.929795 0.499708
2006-08-29 07:44:22 51°23.014 3°0.026 18.6689 4.316454 32.036564 0.499708
2006-08-29 07:44:28 51°23.014 3°0.026 18.6703 4.318352 32.053408 0.465999
2006-08-29 07:44:33 51°23.013 3°0.026 18.6703 4.315084 32.026869 0.499708
2006-08-29 07:44:38 51°23.012 3°0.026 18.6701 4.315716 32.030446 0.499708
2006-08-29 07:44:43 51°23.012 3°0.025 18.6709 4.315716 32.030446 0.499708
2006-08-29 07:44:48 51°23.011 3°0.025 18.6704 4.315611 32.031794 0.465999
2006-08-29 07:44:52 51°23.011 3°0.025 18.6712 4.315611 32.031239 0.499708
2006-08-29 07:44:58 51°23.01 3°0.025 18.6712 4.314346 32.020196 0.465999
2006-08-29 07:45:02 51°23.009 3°0.025 18.6734 4.299481 31.897009 0.465999
2006-08-29 07:45:07 51°23.008 3°0.026 18.6721 4.302749 31.923533 0.465999
2006-08-29 07:45:13 51°23.008 3°0.026 18.6696 4.30802 31.967213 0.465999
2006-08-29 07:45:18 51°23.007 3°0.026 18.6708 4.30802 31.967213 0.465999
2006-08-29 07:45:23 51°23.006 3°0.025 18.6708 4.317614 32.047289 0.465999
2006-08-29 07:45:28 51°23.006 3°0.025 18.6706 4.317192 32.043238 0.499708
2006-08-29 07:45:32 51°23.006 3°0.024 18.6699 4.314767 32.022026 0.465999
2006-08-29 07:45:38 51°23.005 3°0.024 18.6691 4.317614 32.046178 0.499708
2006-08-29 07:45:43 51°23.004 3°0.024 18.6693 4.317614 32.046178 0.499708
2006-08-29 07:45:48 51°23.003 3°0.025 18.6693 4.310234 31.985561 0.499708
2006-08-29 07:45:52 51°23.003 3°0.023 18.6718 4.314346 32.019086 0.465999
2006-08-29 07:45:58 51°23.003 3°0.023 18.6732 4.31034 31.985326 0.465999
2006-08-29 07:46:02 51°23.001 3°0.023 18.6704 4.31034 31.986435 0.499708
2006-08-29 07:46:08 51°23.001 3°0.023 18.6692 4.316981 32.040934 0.499708
2006-08-29 07:46:12 51°23 3°0.023 18.6671 4.316981 32.040934 0.499708
2006-08-29 07:46:17 51°23 3°0.022 18.6673 4.313186 32.010583 0.465999
2006-08-29 07:46:22 51°22.999 3°0.022 18.6684 4.316665 32.038312 0.499708
2006-08-29 07:46:28 51°22.998 3°0.022 18.6691 4.317087 32.041252 0.465999
2006-08-29 07:46:33 51°22.998 3°0.022 18.6691 4.301906 31.916545 0.465999
2006-08-29 07:46:38 51°22.997 3°0.021 18.6673 4.310656 31.990166 0.465999
2006-08-29 07:46:43 51°22.997 3°0.021 18.6675 4.310656 31.990166 0.465999
2006-08-29 07:46:48 51°22.996 3°0.021 18.6665 4.31656 32.039105 0.465999
2006-08-29 07:46:52 51°22.995 3°0.021 18.6674 4.315295 32.028617 0.465999
2006-08-29 07:46:58 51°22.995 3°0.02 18.6672 4.315927 32.034972 0.432289
2006-08-29 07:47:02 51°22.994 3°0.02 18.6665 4.315822 32.033542 0.465999
2006-08-29 07:47:08 51°22.994 3°0.021 18.6657 4.316243 32.034816 0.465999
2006-08-29 07:47:13 51°22.994 3°0.021 18.6663 4.316243 32.034816 0.465999
2006-08-29 07:47:18 51°22.993 3°0.021 18.6681 4.315822 32.032987 0.499708
2006-08-29 07:47:22 51°22.993 3°0.021 18.6645 4.314135 32.020114 0.465999
2006-08-29 07:47:28 51°22.992 3°0.021 18.6653 4.315084 32.028535 0.465999
2006-08-29 07:47:33 51°22.991 3°0.021 18.6648 4.31403 32.020351 0.465999
2006-08-29 07:47:38 51°22.991 3°0.022 18.6689 4.296003 31.869846 0.465999
2006-08-29 07:47:43 51°22.991 3°0.021 18.6667 4.296003 31.869846 0.465999
2006-08-29 07:47:47 51°22.99 3°0.022 18.6662 4.316033 32.036957 0.465999
2006-08-29 07:47:52 51°22.989 3°0.021 18.6656 4.315084 32.02798 0.465999
2006-08-29 07:47:58 51°22.988 3°0.021 18.6652 4.304963 31.944647 0.432289
2006-08-29 07:48:02 51°22.987 3°0.022 18.6663 4.315611 32.033461 0.465999
2006-08-29 07:48:07 51°22.986 3°0.023 18.6663 4.311078 31.99588 0.432289
2006-08-29 07:48:12 51°22.985 3°0.023 18.6664 4.311078 31.99588 0.432289
2006-08-29 07:48:18 51°22.983 3°0.025 18.6668 4.313608 32.0163 0.432289
2006-08-29 07:48:23 51°22.982 3°0.026 18.6651 4.3154 32.031157 0.465999
2006-08-29 07:48:28 51°22.98 3°0.027 18.6646 4.315927 32.035527 0.432289
2006-08-29 07:48:33 51°22.979 3°0.028 18.6655 4.314451 32.023291 0.465999
2006-08-29 07:48:38 51°22.982 3°0.023 18.6651 4.315822 32.035765 0.465999
2006-08-29 07:48:43 51°22.981 3°0.023 18.6656 4.3154 32.030046 0.465999
2006-08-29 07:48:48 51°22.981 3°0.022 18.6669 4.3154 32.030046 0.465999
2006-08-29 07:48:53 51°22.98 3°0.022 18.6678 4.311605 32.00025 0.465999
2006-08-29 07:48:58 51°22.98 3°0.022 18.6635 4.304436 31.940833 0.432289
2006-08-29 07:49:02 51°22.979 3°0.021 18.6658 4.315716 32.034335 0.432289
2006-08-29 07:49:08 51°22.979 3°0.021 18.6677 4.314451 32.023847 0.39858
2006-08-29 07:49:13 51°22.978 3°0.021 18.6669 4.313502 32.016536 0.465999
2006-08-29 07:49:18 51°22.977 3°0.021 18.6655 4.313502 32.016536 0.465999
2006-08-29 07:49:22 51°22.977 3°0.021 18.6667 4.314978 32.028217 0.432289
2006-08-29 07:49:28 51°22.976 3°0.021 18.6653 4.314557 32.024721 0.465999
2006-08-29 07:49:33 51°22.976 3°0.022 18.6652 4.31424 32.022654 0.465999
2006-08-29 07:49:38 51°22.976 3°0.021 18.6654 4.315716 32.035446 0.432289
2006-08-29 07:49:43 51°22.975 3°0.02 18.6661 4.315716 32.035446 0.432289
2006-08-29 07:49:48 51°22.975 3°0.02 18.6672 4.316243 32.03815 0.39858
2006-08-29 07:49:53 51°22.974 3°0.02 18.6664 4.315822 32.032987 0.432289
2006-08-29 07:49:58 51°22.974 3°0.021 18.6659 4.31424 32.022099 0.432289
2006-08-29 07:50:02 51°22.973 3°0.021 18.6662 4.294948 31.861113 0.432289
2006-08-29 07:50:08 51°22.972 3°0.022 18.6647 4.305912 31.95251 0.432289
2006-08-29 07:50:13 51°22.972 3°0.021 18.6646 4.305912 31.95251 0.432289
2006-08-29 07:50:18 51°22.971 3°0.021 18.6659 4.315927 32.037194 0.432289
2006-08-29 07:50:23 51°22.971 3°0.021 18.6674 4.315822 32.034098 0.432289
2006-08-29 07:50:28 51°22.97 3°0.021 18.6671 4.315716 32.033779 0.39858
2006-08-29 07:50:32 51°22.969 3°0.021 18.6678 4.310656 31.99294 0.432289
2006-08-29 07:50:38 51°22.968 3°0.021 18.6648 4.30043 31.907636 0.432289
2006-08-29 07:50:42 51°22.968 3°0.021 18.6656 4.315927 32.035527 0.432289
2006-08-29 07:50:48 51°22.968 3°0.021 18.6646 4.315927 32.035527 0.432289
2006-08-29 07:50:52 51°22.967 3°0.021 18.6649 4.315611 32.034572 0.432289
2006-08-29 07:50:57 51°22.967 3°0.021 18.6662 4.313608 32.018521 0.432289
2006-08-29 07:51:02 51°22.967 3°0.021 18.6652 4.309496 31.982218 0.432289
2006-08-29 07:51:08 51°22.967 3°0.022 18.6667 4.315822 32.034653 0.432289
2006-08-29 07:51:13 51°22.968 3°0.023 18.6664 4.315822 32.034653 0.432289
2006-08-29 07:51:18 51°22.968 3°0.024 18.668 4.315505 32.032031 0.465999
2006-08-29 07:51:23 51°22.97 3°0.026 18.6662 4.309391 31.981344 0.432289
2006-08-29 07:51:28 51°22.972 3°0.028 18.6642 4.316033 32.036957 0.432289
2006-08-29 07:51:32 51°22.974 3°0.03 18.6663 4.314451 32.024402 0.39858
2006-08-29 07:51:38 51°22.977 3°0.035 18.6675 4.315084 32.029646 0.432289
2006-08-29 07:51:42 51°22.98 3°0.038 18.6652 4.315084 32.029646 0.432289
2006-08-29 07:51:47 51°22.984 3°0.043 18.6664 4.316243 32.03815 0.432289
2006-08-29 07:51:53 51°22.988 3°0.051 18.6682 4.314662 32.023929 0.432289
2006-08-29 07:51:58 51°22.991 3°0.059 18.6666 4.315927 32.035527 0.432289
2006-08-29 07:52:03 51°22.995 3°0.069 18.6676 4.315927 32.035527 0.465999
2006-08-29 07:52:08 51°22.997 3°0.079 18.6669 4.315822 32.035209 0.432289
2006-08-29 07:52:12 51°22.998 3°0.089 18.6673 4.315189 32.029965 0.432289
2006-08-29 07:52:18 51°22.999 3°0.104 18.6657 4.315189 32.029965 0.432289
2006-08-29 07:52:23 51°22.998 3°0.117 18.6658 4.314873 32.027343 0.465999
2006-08-29 07:52:28 51°22.995 3°0.13 18.6666 4.310867 31.993578 0.465999
2006-08-29 07:52:32 51°22.993 3°0.14 18.665 4.313397 32.013996 0.465999
2006-08-29 07:52:38 51°22.987 3°0.155 18.6647 4.314451 32.022736 0.432289
2006-08-29 07:52:43 51°22.98 3°0.166 18.6662 4.314451 32.022736 0.432289
2006-08-29 07:52:48 51°22.973 3°0.175 18.6602 4.314873 32.025676 0.465999
2006-08-29 07:52:53 51°22.964 3°0.184 18.6634 4.302749 31.92464 0.465999
2006-08-29 07:52:58 51°22.955 3°0.189 18.6617 4.301168 31.911538 0.465999
2006-08-29 07:53:03 51°22.945 3°0.193 18.6604 4.315505 32.029809 0.465999
2006-08-29 07:53:08 51°22.935 3°0.194 18.6711 4.3154 32.028935 0.499708
2006-08-29 07:53:13 51°22.924 3°0.195 18.6628 4.3154 32.028935 0.499708
2006-08-29 07:53:18 51°22.914 3°0.191 18.6603 4.312975 32.00939 0.465999
2006-08-29 07:53:23 51°22.903 3°0.187 18.6599 4.307493 31.963953 0.465999